<?xml version='1.0' encoding='UTF-8'?>
<gpx version="1.1" creator="https://www.komoot.de" xmlns="http://www.topografix.com/GPX/1/1" xmlns:xsi="http://www.w3.org/2001/XMLSchema-instance" xsi:schemaLocation="http://www.topografix.com/GPX/1/1 http://www.topografix.com/GPX/1/1/gpx.xsd">
  <metadata>
    <name>ADFC-Ri-2026-08-25: nach Hövelhof</name>
    <author>
      <link href="https://www.komoot.de">
        <text>komoot</text>
        <type>text/html</type>
      </link>
    </author>
  </metadata>
  <wpt lat="51.821135" lon="8.657082">
    <name>Jagdschloss Hövelhof</name>
    <sym>Flag, Blue</sym>
  </wpt>
  <wpt lat="51.806805" lon="8.656820">
    <name>Naturschutzgebiet Lauerwiesen</name>
    <sym>Flag, Blue</sym>
  </wpt>
  <wpt lat="51.796688" lon="8.554385">
    <name>Herz-Jesu-Kirche Lippling</name>
    <sym>Flag, Blue</sym>
  </wpt>
  <wpt lat="51.807262" lon="8.430074">
    <name>LGS-Gelände Rietberg</name>
    <sym>Flag, Blue</sym>
  </wpt>
  <trk>
    <name>ADFC-Ri-2026-08-25: nach Hövelhof</name>
    <type>e_touring_bicycle</type>
    <trkseg>
      <trkpt lat="51.817918" lon="8.430743">
        <ele>78.633877</ele>
        <time>2026-08-18T19:10:08.059Z</time>
      </trkpt>
      <trkpt lat="51.817847" lon="8.431253">
        <ele>78.633877</ele>
        <time>2026-08-18T19:10:16.905Z</time>
      </trkpt>
      <trkpt lat="51.818226" lon="8.431390">
        <ele>78.633877</ele>
        <time>2026-08-18T19:10:27.554Z</time>
      </trkpt>
      <trkpt lat="51.818046" lon="8.432598">
        <ele>78.682218</ele>
        <time>2026-08-18T19:10:43.755Z</time>
      </trkpt>
      <trkpt lat="51.817926" lon="8.433471">
        <ele>78.728271</ele>
        <time>2026-08-18T19:10:55.520Z</time>
      </trkpt>
      <trkpt lat="51.817788" lon="8.434474">
        <ele>78.781184</ele>
        <time>2026-08-18T19:11:09.098Z</time>
      </trkpt>
      <trkpt lat="51.817486" lon="8.436691">
        <ele>78.854995</ele>
        <time>2026-08-18T19:11:38.951Z</time>
      </trkpt>
      <trkpt lat="51.817482" lon="8.436827">
        <ele>78.859365</ele>
        <time>2026-08-18T19:11:40.756Z</time>
      </trkpt>
      <trkpt lat="51.816955" lon="8.440479">
        <ele>78.834812</ele>
        <time>2026-08-18T19:12:29.379Z</time>
      </trkpt>
      <trkpt lat="51.816358" lon="8.444591">
        <ele>78.916286</ele>
        <time>2026-08-18T19:13:24.689Z</time>
      </trkpt>
      <trkpt lat="51.816256" lon="8.444833">
        <ele>78.914855</ele>
        <time>2026-08-18T19:13:28.504Z</time>
      </trkpt>
      <trkpt lat="51.816200" lon="8.445064">
        <ele>78.913643</ele>
        <time>2026-08-18T19:13:31.732Z</time>
      </trkpt>
      <trkpt lat="51.816188" lon="8.445319">
        <ele>78.912393</ele>
        <time>2026-08-18T19:13:35.061Z</time>
      </trkpt>
      <trkpt lat="51.816206" lon="8.445638">
        <ele>78.910828</ele>
        <time>2026-08-18T19:13:39.218Z</time>
      </trkpt>
      <trkpt lat="51.815736" lon="8.448884">
        <ele>78.773614</ele>
        <time>2026-08-18T19:14:22.164Z</time>
      </trkpt>
      <trkpt lat="51.815727" lon="8.448950">
        <ele>78.780320</ele>
        <time>2026-08-18T19:14:23.045Z</time>
      </trkpt>
      <trkpt lat="51.815710" lon="8.449077">
        <ele>78.793212</ele>
        <time>2026-08-18T19:14:24.727Z</time>
      </trkpt>
      <trkpt lat="51.814622" lon="8.456598">
        <ele>79.692288</ele>
        <time>2026-08-18T19:16:07.060Z</time>
      </trkpt>
      <trkpt lat="51.814590" lon="8.456778">
        <ele>79.721507</ele>
        <time>2026-08-18T19:16:09.572Z</time>
      </trkpt>
      <trkpt lat="51.814843" lon="8.457548">
        <ele>79.952145</ele>
        <time>2026-08-18T19:16:21.357Z</time>
      </trkpt>
      <trkpt lat="51.814863" lon="8.457727">
        <ele>80.015861</ele>
        <time>2026-08-18T19:16:23.826Z</time>
      </trkpt>
      <trkpt lat="51.814906" lon="8.457736">
        <ele>80.040428</ele>
        <time>2026-08-18T19:16:24.790Z</time>
      </trkpt>
      <trkpt lat="51.814984" lon="8.457891">
        <ele>80.110435</ele>
        <time>2026-08-18T19:16:27.525Z</time>
      </trkpt>
      <trkpt lat="51.815149" lon="8.458332">
        <ele>80.290996</ele>
        <time>2026-08-18T19:16:34.599Z</time>
      </trkpt>
      <trkpt lat="51.815833" lon="8.459655">
        <ele>80.828874</ele>
        <time>2026-08-18T19:16:58.179Z</time>
      </trkpt>
      <trkpt lat="51.815931" lon="8.459846">
        <ele>80.854814</ele>
        <time>2026-08-18T19:17:01.556Z</time>
      </trkpt>
      <trkpt lat="51.816784" lon="8.461104">
        <ele>81.049951</ele>
        <time>2026-08-18T19:17:26.075Z</time>
      </trkpt>
      <trkpt lat="51.817209" lon="8.461672">
        <ele>81.116440</ele>
        <time>2026-08-18T19:17:37.705Z</time>
      </trkpt>
      <trkpt lat="51.817969" lon="8.462689">
        <ele>81.167134</ele>
        <time>2026-08-18T19:17:58.677Z</time>
      </trkpt>
      <trkpt lat="51.819118" lon="8.464123">
        <ele>81.282833</ele>
        <time>2026-08-18T19:18:29.209Z</time>
      </trkpt>
      <trkpt lat="51.819262" lon="8.464306">
        <ele>81.300939</ele>
        <time>2026-08-18T19:18:33.044Z</time>
      </trkpt>
      <trkpt lat="51.819387" lon="8.464464">
        <ele>81.316624</ele>
        <time>2026-08-18T19:18:36.392Z</time>
      </trkpt>
      <trkpt lat="51.819701" lon="8.464939">
        <ele>81.359130</ele>
        <time>2026-08-18T19:18:45.640Z</time>
      </trkpt>
      <trkpt lat="51.819860" lon="8.465281">
        <ele>81.405408</ele>
        <time>2026-08-18T19:18:51.358Z</time>
      </trkpt>
      <trkpt lat="51.820006" lon="8.465665">
        <ele>81.487201</ele>
        <time>2026-08-18T19:18:57.377Z</time>
      </trkpt>
      <trkpt lat="51.820207" lon="8.466373">
        <ele>81.628554</ele>
        <time>2026-08-18T19:19:07.844Z</time>
      </trkpt>
      <trkpt lat="51.820229" lon="8.466450">
        <ele>81.643944</ele>
        <time>2026-08-18T19:19:08.989Z</time>
      </trkpt>
      <trkpt lat="51.820464" lon="8.467273">
        <ele>81.808422</ele>
        <time>2026-08-18T19:19:21.176Z</time>
      </trkpt>
      <trkpt lat="51.820541" lon="8.467517">
        <ele>81.858126</ele>
        <time>2026-08-18T19:19:24.859Z</time>
      </trkpt>
      <trkpt lat="51.821056" lon="8.468515">
        <ele>82.020330</ele>
        <time>2026-08-18T19:19:41.917Z</time>
      </trkpt>
      <trkpt lat="51.821254" lon="8.468827">
        <ele>82.070169</ele>
        <time>2026-08-18T19:19:47.783Z</time>
      </trkpt>
      <trkpt lat="51.821135" lon="8.469059">
        <ele>82.103771</ele>
        <time>2026-08-18T19:19:51.760Z</time>
      </trkpt>
      <trkpt lat="51.821192" lon="8.469123">
        <ele>82.116282</ele>
        <time>2026-08-18T19:19:53.241Z</time>
      </trkpt>
      <trkpt lat="51.821303" lon="8.469255">
        <ele>82.141123</ele>
        <time>2026-08-18T19:19:56.193Z</time>
      </trkpt>
      <trkpt lat="51.822718" lon="8.470369">
        <ele>82.480288</ele>
        <time>2026-08-18T19:20:30.145Z</time>
      </trkpt>
      <trkpt lat="51.822941" lon="8.470605">
        <ele>82.541814</ele>
        <time>2026-08-18T19:20:35.903Z</time>
      </trkpt>
      <trkpt lat="51.823196" lon="8.471065">
        <ele>82.629996</ele>
        <time>2026-08-18T19:20:44.145Z</time>
      </trkpt>
      <trkpt lat="51.823350" lon="8.471490">
        <ele>82.662435</ele>
        <time>2026-08-18T19:20:50.600Z</time>
      </trkpt>
      <trkpt lat="51.823443" lon="8.471810">
        <ele>82.679779</ele>
        <time>2026-08-18T19:20:55.201Z</time>
      </trkpt>
      <trkpt lat="51.823503" lon="8.472140">
        <ele>82.696651</ele>
        <time>2026-08-18T19:20:59.676Z</time>
      </trkpt>
      <trkpt lat="51.823555" lon="8.472717">
        <ele>82.725252</ele>
        <time>2026-08-18T19:21:07.264Z</time>
      </trkpt>
      <trkpt lat="51.823564" lon="8.472805">
        <ele>82.729627</ele>
        <time>2026-08-18T19:21:08.411Z</time>
      </trkpt>
      <trkpt lat="51.823656" lon="8.473211">
        <ele>82.750837</ele>
        <time>2026-08-18T19:21:14.034Z</time>
      </trkpt>
      <trkpt lat="51.823811" lon="8.473612">
        <ele>82.774036</ele>
        <time>2026-08-18T19:21:20.231Z</time>
      </trkpt>
      <trkpt lat="51.824847" lon="8.475929">
        <ele>83.214533</ele>
        <time>2026-08-18T19:21:58.315Z</time>
      </trkpt>
      <trkpt lat="51.824868" lon="8.475975">
        <ele>83.223868</ele>
        <time>2026-08-18T19:21:59.075Z</time>
      </trkpt>
      <trkpt lat="51.825154" lon="8.476826">
        <ele>83.369221</ele>
        <time>2026-08-18T19:22:12.089Z</time>
      </trkpt>
      <trkpt lat="51.825370" lon="8.478097">
        <ele>83.561804</ele>
        <time>2026-08-18T19:22:29.746Z</time>
      </trkpt>
      <trkpt lat="51.825467" lon="8.478668">
        <ele>83.648319</ele>
        <time>2026-08-18T19:22:37.547Z</time>
      </trkpt>
      <trkpt lat="51.825456" lon="8.478978">
        <ele>83.688273</ele>
        <time>2026-08-18T19:22:41.604Z</time>
      </trkpt>
      <trkpt lat="51.825280" lon="8.480441">
        <ele>83.761452</ele>
        <time>2026-08-18T19:23:00.913Z</time>
      </trkpt>
      <trkpt lat="51.825281" lon="8.480697">
        <ele>83.774022</ele>
        <time>2026-08-18T19:23:04.239Z</time>
      </trkpt>
      <trkpt lat="51.825324" lon="8.481202">
        <ele>83.799051</ele>
        <time>2026-08-18T19:23:10.883Z</time>
      </trkpt>
      <trkpt lat="51.825437" lon="8.481967">
        <ele>83.870582</ele>
        <time>2026-08-18T19:23:21.353Z</time>
      </trkpt>
      <trkpt lat="51.825470" lon="8.482363">
        <ele>83.959999</ele>
        <time>2026-08-18T19:23:26.730Z</time>
      </trkpt>
      <trkpt lat="51.825500" lon="8.483478">
        <ele>84.209747</ele>
        <time>2026-08-18T19:23:41.857Z</time>
      </trkpt>
      <trkpt lat="51.825589" lon="8.484236">
        <ele>84.382403</ele>
        <time>2026-08-18T19:23:52.259Z</time>
      </trkpt>
      <trkpt lat="51.825624" lon="8.484391">
        <ele>84.419331</ele>
        <time>2026-08-18T19:23:54.478Z</time>
      </trkpt>
      <trkpt lat="51.825894" lon="8.487553">
        <ele>84.909030</ele>
        <time>2026-08-18T19:24:36.758Z</time>
      </trkpt>
      <trkpt lat="51.825939" lon="8.488356">
        <ele>85.071487</ele>
        <time>2026-08-18T19:24:47.564Z</time>
      </trkpt>
      <trkpt lat="51.826000" lon="8.489567">
        <ele>85.316297</ele>
        <time>2026-08-18T19:25:03.884Z</time>
      </trkpt>
      <trkpt lat="51.826051" lon="8.489880">
        <ele>85.381517</ele>
        <time>2026-08-18T19:25:08.236Z</time>
      </trkpt>
      <trkpt lat="51.826434" lon="8.491367">
        <ele>85.782055</ele>
        <time>2026-08-18T19:25:29.810Z</time>
      </trkpt>
      <trkpt lat="51.826945" lon="8.494407">
        <ele>86.748467</ele>
        <time>2026-08-18T19:26:12.534Z</time>
      </trkpt>
      <trkpt lat="51.827474" lon="8.497677">
        <ele>87.514157</ele>
        <time>2026-08-18T19:26:58.600Z</time>
      </trkpt>
      <trkpt lat="51.827578" lon="8.498631">
        <ele>87.620562</ele>
        <time>2026-08-18T19:27:10.873Z</time>
      </trkpt>
      <trkpt lat="51.827581" lon="8.498867">
        <ele>87.618890</ele>
        <time>2026-08-18T19:27:13.803Z</time>
      </trkpt>
      <trkpt lat="51.827533" lon="8.499022">
        <ele>87.561710</ele>
        <time>2026-08-18T19:27:15.907Z</time>
      </trkpt>
      <trkpt lat="51.826970" lon="8.501602">
        <ele>86.696722</ele>
        <time>2026-08-18T19:27:49.506Z</time>
      </trkpt>
      <trkpt lat="51.826867" lon="8.501991">
        <ele>86.812769</ele>
        <time>2026-08-18T19:27:55.065Z</time>
      </trkpt>
      <trkpt lat="51.826267" lon="8.503703">
        <ele>87.352459</ele>
        <time>2026-08-18T19:28:21.970Z</time>
      </trkpt>
      <trkpt lat="51.825685" lon="8.504843">
        <ele>87.711593</ele>
        <time>2026-08-18T19:28:42.183Z</time>
      </trkpt>
      <trkpt lat="51.826343" lon="8.505304">
        <ele>87.977115</ele>
        <time>2026-08-18T19:28:57.708Z</time>
      </trkpt>
      <trkpt lat="51.826469" lon="8.505493">
        <ele>88.040739</ele>
        <time>2026-08-18T19:29:01.386Z</time>
      </trkpt>
      <trkpt lat="51.826477" lon="8.505603">
        <ele>88.066088</ele>
        <time>2026-08-18T19:29:02.843Z</time>
      </trkpt>
      <trkpt lat="51.826276" lon="8.506442">
        <ele>88.214715</ele>
        <time>2026-08-18T19:29:14.700Z</time>
      </trkpt>
      <trkpt lat="51.826209" lon="8.506835">
        <ele>88.266313</ele>
        <time>2026-08-18T19:29:20.107Z</time>
      </trkpt>
      <trkpt lat="51.826188" lon="8.507123">
        <ele>88.303017</ele>
        <time>2026-08-18T19:29:23.984Z</time>
      </trkpt>
      <trkpt lat="51.826194" lon="8.507572">
        <ele>88.359858</ele>
        <time>2026-08-18T19:29:29.984Z</time>
      </trkpt>
      <trkpt lat="51.826364" lon="8.509630">
        <ele>88.575336</ele>
        <time>2026-08-18T19:29:57.433Z</time>
      </trkpt>
      <trkpt lat="51.826522" lon="8.511414">
        <ele>88.705781</ele>
        <time>2026-08-18T19:30:21.147Z</time>
      </trkpt>
      <trkpt lat="51.826672" lon="8.512704">
        <ele>88.756326</ele>
        <time>2026-08-18T19:30:38.493Z</time>
      </trkpt>
      <trkpt lat="51.826875" lon="8.514347">
        <ele>88.808476</ele>
        <time>2026-08-18T19:31:00.517Z</time>
      </trkpt>
      <trkpt lat="51.827178" lon="8.516875">
        <ele>88.356184</ele>
        <time>2026-08-18T19:31:33.248Z</time>
      </trkpt>
      <trkpt lat="51.827250" lon="8.517233">
        <ele>88.285007</ele>
        <time>2026-08-18T19:31:37.903Z</time>
      </trkpt>
      <trkpt lat="51.827353" lon="8.517535">
        <ele>88.190560</ele>
        <time>2026-08-18T19:31:42.151Z</time>
      </trkpt>
      <trkpt lat="51.827788" lon="8.518542">
        <ele>87.801649</ele>
        <time>2026-08-18T19:31:57.238Z</time>
      </trkpt>
      <trkpt lat="51.828131" lon="8.519431">
        <ele>87.469904</ele>
        <time>2026-08-18T19:32:10.335Z</time>
      </trkpt>
      <trkpt lat="51.828396" lon="8.520118">
        <ele>87.270241</ele>
        <time>2026-08-18T19:32:20.581Z</time>
      </trkpt>
      <trkpt lat="51.828507" lon="8.520490">
        <ele>87.197232</ele>
        <time>2026-08-18T19:32:25.855Z</time>
      </trkpt>
      <trkpt lat="51.829421" lon="8.523507">
        <ele>86.740301</ele>
        <time>2026-08-18T19:33:08.530Z</time>
      </trkpt>
      <trkpt lat="51.829841" lon="8.524949">
        <ele>86.630653</ele>
        <time>2026-08-18T19:33:29.268Z</time>
      </trkpt>
      <trkpt lat="51.830234" lon="8.526219">
        <ele>86.738882</ele>
        <time>2026-08-18T19:33:48.069Z</time>
      </trkpt>
      <trkpt lat="51.830585" lon="8.527328">
        <ele>86.840158</ele>
        <time>2026-08-18T19:34:04.514Z</time>
      </trkpt>
      <trkpt lat="51.830948" lon="8.528293">
        <ele>86.968909</ele>
        <time>2026-08-18T19:34:19.526Z</time>
      </trkpt>
      <trkpt lat="51.831061" lon="8.528628">
        <ele>87.016758</ele>
        <time>2026-08-18T19:34:24.590Z</time>
      </trkpt>
      <trkpt lat="51.831483" lon="8.529938">
        <ele>87.201971</ele>
        <time>2026-08-18T19:34:44.065Z</time>
      </trkpt>
      <trkpt lat="51.831586" lon="8.530336">
        <ele>87.271387</ele>
        <time>2026-08-18T19:34:49.809Z</time>
      </trkpt>
      <trkpt lat="51.831624" lon="8.530654">
        <ele>87.334817</ele>
        <time>2026-08-18T19:34:54.133Z</time>
      </trkpt>
      <trkpt lat="51.831625" lon="8.530857">
        <ele>87.374574</ele>
        <time>2026-08-18T19:34:56.855Z</time>
      </trkpt>
      <trkpt lat="51.831549" lon="8.532106">
        <ele>87.620360</ele>
        <time>2026-08-18T19:35:13.829Z</time>
      </trkpt>
      <trkpt lat="51.831565" lon="8.532306">
        <ele>87.659855</ele>
        <time>2026-08-18T19:35:16.561Z</time>
      </trkpt>
      <trkpt lat="51.831632" lon="8.532584">
        <ele>87.718292</ele>
        <time>2026-08-18T19:35:20.568Z</time>
      </trkpt>
      <trkpt lat="51.831941" lon="8.533223">
        <ele>87.715223</ele>
        <time>2026-08-18T19:35:31.293Z</time>
      </trkpt>
      <trkpt lat="51.831963" lon="8.533341">
        <ele>87.689481</ele>
        <time>2026-08-18T19:35:32.889Z</time>
      </trkpt>
      <trkpt lat="51.831990" lon="8.533487">
        <ele>87.657651</ele>
        <time>2026-08-18T19:35:34.858Z</time>
      </trkpt>
      <trkpt lat="51.832027" lon="8.534287">
        <ele>87.490097</ele>
        <time>2026-08-18T19:35:45.043Z</time>
      </trkpt>
      <trkpt lat="51.832204" lon="8.535244">
        <ele>87.281459</ele>
        <time>2026-08-18T19:35:57.292Z</time>
      </trkpt>
      <trkpt lat="51.832096" lon="8.535354">
        <ele>87.238329</ele>
        <time>2026-08-18T19:35:59.786Z</time>
      </trkpt>
      <trkpt lat="51.830403" lon="8.538116">
        <ele>86.537305</ele>
        <time>2026-08-18T19:36:48.415Z</time>
      </trkpt>
      <trkpt lat="51.829732" lon="8.539217">
        <ele>86.881622</ele>
        <time>2026-08-18T19:37:09.608Z</time>
      </trkpt>
      <trkpt lat="51.827892" lon="8.542206">
        <ele>88.643991</ele>
        <time>2026-08-18T19:38:07.643Z</time>
      </trkpt>
      <trkpt lat="51.827654" lon="8.542466">
        <ele>88.789544</ele>
        <time>2026-08-18T19:38:13.916Z</time>
      </trkpt>
      <trkpt lat="51.826140" lon="8.543824">
        <ele>89.636982</ele>
        <time>2026-08-18T19:38:51.610Z</time>
      </trkpt>
      <trkpt lat="51.826082" lon="8.543871">
        <ele>89.666871</ele>
        <time>2026-08-18T19:38:53.047Z</time>
      </trkpt>
      <trkpt lat="51.825979" lon="8.543967">
        <ele>89.721642</ele>
        <time>2026-08-18T19:38:55.654Z</time>
      </trkpt>
      <trkpt lat="51.825957" lon="8.543988">
        <ele>89.733411</ele>
        <time>2026-08-18T19:38:56.220Z</time>
      </trkpt>
      <trkpt lat="51.825742" lon="8.544212">
        <ele>89.851239</ele>
        <time>2026-08-18T19:39:01.855Z</time>
      </trkpt>
      <trkpt lat="51.825655" lon="8.544417">
        <ele>89.922057</ele>
        <time>2026-08-18T19:39:05.265Z</time>
      </trkpt>
      <trkpt lat="51.825272" lon="8.545791">
        <ele>90.121110</ele>
        <time>2026-08-18T19:39:25.592Z</time>
      </trkpt>
      <trkpt lat="51.825128" lon="8.546317">
        <ele>90.081335</ele>
        <time>2026-08-18T19:39:32.917Z</time>
      </trkpt>
      <trkpt lat="51.825044" lon="8.546504">
        <ele>90.065352</ele>
        <time>2026-08-18T19:39:35.811Z</time>
      </trkpt>
      <trkpt lat="51.824347" lon="8.547515">
        <ele>89.981521</ele>
        <time>2026-08-18T19:39:54.962Z</time>
      </trkpt>
      <trkpt lat="51.824269" lon="8.547755">
        <ele>90.055171</ele>
        <time>2026-08-18T19:39:58.415Z</time>
      </trkpt>
      <trkpt lat="51.824180" lon="8.548526">
        <ele>90.268207</ele>
        <time>2026-08-18T19:40:08.748Z</time>
      </trkpt>
      <trkpt lat="51.824186" lon="8.548939">
        <ele>90.380414</ele>
        <time>2026-08-18T19:40:14.330Z</time>
      </trkpt>
      <trkpt lat="51.824268" lon="8.549283">
        <ele>90.480558</ele>
        <time>2026-08-18T19:40:19.395Z</time>
      </trkpt>
      <trkpt lat="51.824474" lon="8.550890">
        <ele>91.038753</ele>
        <time>2026-08-18T19:40:42.143Z</time>
      </trkpt>
      <trkpt lat="51.824469" lon="8.551203">
        <ele>91.179695</ele>
        <time>2026-08-18T19:40:46.455Z</time>
      </trkpt>
      <trkpt lat="51.824374" lon="8.551924">
        <ele>91.511540</ele>
        <time>2026-08-18T19:40:56.580Z</time>
      </trkpt>
      <trkpt lat="51.824191" lon="8.553311">
        <ele>92.105971</ele>
        <time>2026-08-18T19:41:15.906Z</time>
      </trkpt>
      <trkpt lat="51.824233" lon="8.554105">
        <ele>92.278439</ele>
        <time>2026-08-18T19:41:26.810Z</time>
      </trkpt>
      <trkpt lat="51.824277" lon="8.554867">
        <ele>92.444072</ele>
        <time>2026-08-18T19:41:37.176Z</time>
      </trkpt>
      <trkpt lat="51.824413" lon="8.555292">
        <ele>92.547649</ele>
        <time>2026-08-18T19:41:43.492Z</time>
      </trkpt>
      <trkpt lat="51.824668" lon="8.555836">
        <ele>92.694776</ele>
        <time>2026-08-18T19:41:52.440Z</time>
      </trkpt>
      <trkpt lat="51.825393" lon="8.555774">
        <ele>92.505329</ele>
        <time>2026-08-18T19:42:07.358Z</time>
      </trkpt>
      <trkpt lat="51.826945" lon="8.555641">
        <ele>92.313452</ele>
        <time>2026-08-18T19:42:39.128Z</time>
      </trkpt>
      <trkpt lat="51.827148" lon="8.557493">
        <ele>92.524820</ele>
        <time>2026-08-18T19:43:04.517Z</time>
      </trkpt>
      <trkpt lat="51.827227" lon="8.558210">
        <ele>92.629808</ele>
        <time>2026-08-18T19:43:14.352Z</time>
      </trkpt>
      <trkpt lat="51.827245" lon="8.558803">
        <ele>92.725167</ele>
        <time>2026-08-18T19:43:22.262Z</time>
      </trkpt>
      <trkpt lat="51.827158" lon="8.560086">
        <ele>92.932471</ele>
        <time>2026-08-18T19:43:39.322Z</time>
      </trkpt>
      <trkpt lat="51.827132" lon="8.560946">
        <ele>93.045316</ele>
        <time>2026-08-18T19:43:50.661Z</time>
      </trkpt>
      <trkpt lat="51.826939" lon="8.561956">
        <ele>93.129698</ele>
        <time>2026-08-18T19:44:04.698Z</time>
      </trkpt>
      <trkpt lat="51.827072" lon="8.562708">
        <ele>93.192130</ele>
        <time>2026-08-18T19:44:15.146Z</time>
      </trkpt>
      <trkpt lat="51.827118" lon="8.563255">
        <ele>93.236193</ele>
        <time>2026-08-18T19:44:22.427Z</time>
      </trkpt>
      <trkpt lat="51.827094" lon="8.563520">
        <ele>93.239864</ele>
        <time>2026-08-18T19:44:25.887Z</time>
      </trkpt>
      <trkpt lat="51.826964" lon="8.563811">
        <ele>93.169110</ele>
        <time>2026-08-18T19:44:30.488Z</time>
      </trkpt>
      <trkpt lat="51.827242" lon="8.564180">
        <ele>93.054464</ele>
        <time>2026-08-18T19:44:37.814Z</time>
      </trkpt>
      <trkpt lat="51.828188" lon="8.565212">
        <ele>92.690694</ele>
        <time>2026-08-18T19:45:00.897Z</time>
      </trkpt>
      <trkpt lat="51.828910" lon="8.565737">
        <ele>92.732318</ele>
        <time>2026-08-18T19:45:17.318Z</time>
      </trkpt>
      <trkpt lat="51.828899" lon="8.565884">
        <ele>92.738783</ele>
        <time>2026-08-18T19:45:19.267Z</time>
      </trkpt>
      <trkpt lat="51.828706" lon="8.568393">
        <ele>92.947569</ele>
        <time>2026-08-18T19:45:53.112Z</time>
      </trkpt>
      <trkpt lat="51.828687" lon="8.568818">
        <ele>93.008633</ele>
        <time>2026-08-18T19:45:58.797Z</time>
      </trkpt>
      <trkpt lat="51.828910" lon="8.573667">
        <ele>93.289296</ele>
        <time>2026-08-18T19:47:02.988Z</time>
      </trkpt>
      <trkpt lat="51.831840" lon="8.573879">
        <ele>92.146800</ele>
        <time>2026-08-18T19:48:02.174Z</time>
      </trkpt>
      <trkpt lat="51.832671" lon="8.573905">
        <ele>92.070062</ele>
        <time>2026-08-18T19:48:19.378Z</time>
      </trkpt>
      <trkpt lat="51.832837" lon="8.573919">
        <ele>92.099520</ele>
        <time>2026-08-18T19:48:22.890Z</time>
      </trkpt>
      <trkpt lat="51.832878" lon="8.573923">
        <ele>92.106799</ele>
        <time>2026-08-18T19:48:23.769Z</time>
      </trkpt>
      <trkpt lat="51.832880" lon="8.574169">
        <ele>92.133741</ele>
        <time>2026-08-18T19:48:27.028Z</time>
      </trkpt>
      <trkpt lat="51.833147" lon="8.576162">
        <ele>92.380828</ele>
        <time>2026-08-18T19:48:54.439Z</time>
      </trkpt>
      <trkpt lat="51.833190" lon="8.577042">
        <ele>92.525676</ele>
        <time>2026-08-18T19:49:06.360Z</time>
      </trkpt>
      <trkpt lat="51.833190" lon="8.578055">
        <ele>92.691897</ele>
        <time>2026-08-18T19:49:19.861Z</time>
      </trkpt>
      <trkpt lat="51.833121" lon="8.580169">
        <ele>92.728199</ele>
        <time>2026-08-18T19:49:47.345Z</time>
      </trkpt>
      <trkpt lat="51.833110" lon="8.580501">
        <ele>92.715485</ele>
        <time>2026-08-18T19:49:51.617Z</time>
      </trkpt>
      <trkpt lat="51.832792" lon="8.583719">
        <ele>92.826704</ele>
        <time>2026-08-18T19:50:33.838Z</time>
      </trkpt>
      <trkpt lat="51.832856" lon="8.584938">
        <ele>93.036075</ele>
        <time>2026-08-18T19:50:50.421Z</time>
      </trkpt>
      <trkpt lat="51.832639" lon="8.585857">
        <ele>93.336687</ele>
        <time>2026-08-18T19:51:03.885Z</time>
      </trkpt>
      <trkpt lat="51.832892" lon="8.586065">
        <ele>93.477007</ele>
        <time>2026-08-18T19:51:10.382Z</time>
      </trkpt>
      <trkpt lat="51.832855" lon="8.588745">
        <ele>94.179504</ele>
        <time>2026-08-18T19:51:47.604Z</time>
      </trkpt>
      <trkpt lat="51.832235" lon="8.591862">
        <ele>95.158161</ele>
        <time>2026-08-18T19:52:33.448Z</time>
      </trkpt>
      <trkpt lat="51.831806" lon="8.594024">
        <ele>95.653828</ele>
        <time>2026-08-18T19:53:05.536Z</time>
      </trkpt>
      <trkpt lat="51.831081" lon="8.594942">
        <ele>95.865832</ele>
        <time>2026-08-18T19:53:25.890Z</time>
      </trkpt>
      <trkpt lat="51.830847" lon="8.595226">
        <ele>95.734680</ele>
        <time>2026-08-18T19:53:32.021Z</time>
      </trkpt>
      <trkpt lat="51.830388" lon="8.595783">
        <ele>95.477432</ele>
        <time>2026-08-18T19:53:43.788Z</time>
      </trkpt>
      <trkpt lat="51.830258" lon="8.595927">
        <ele>95.406794</ele>
        <time>2026-08-18T19:53:47.019Z</time>
      </trkpt>
      <trkpt lat="51.830135" lon="8.596131">
        <ele>95.327820</ele>
        <time>2026-08-18T19:53:50.613Z</time>
      </trkpt>
      <trkpt lat="51.830037" lon="8.596379">
        <ele>95.246253</ele>
        <time>2026-08-18T19:53:54.337Z</time>
      </trkpt>
      <trkpt lat="51.830011" lon="8.596464">
        <ele>95.219973</ele>
        <time>2026-08-18T19:53:55.482Z</time>
      </trkpt>
      <trkpt lat="51.829921" lon="8.596396">
        <ele>95.175437</ele>
        <time>2026-08-18T19:53:57.452Z</time>
      </trkpt>
      <trkpt lat="51.829914" lon="8.596390">
        <ele>95.171885</ele>
        <time>2026-08-18T19:53:57.623Z</time>
      </trkpt>
      <trkpt lat="51.829801" lon="8.596308">
        <ele>95.116357</ele>
        <time>2026-08-18T19:54:00.146Z</time>
      </trkpt>
      <trkpt lat="51.829271" lon="8.595873">
        <ele>95.423015</ele>
        <time>2026-08-18T19:54:13.188Z</time>
      </trkpt>
      <trkpt lat="51.828881" lon="8.595636">
        <ele>95.717334</ele>
        <time>2026-08-18T19:54:22.547Z</time>
      </trkpt>
      <trkpt lat="51.828799" lon="8.596021">
        <ele>95.895134</ele>
        <time>2026-08-18T19:54:28.417Z</time>
      </trkpt>
      <trkpt lat="51.828619" lon="8.596225">
        <ele>96.050391</ele>
        <time>2026-08-18T19:54:33.533Z</time>
      </trkpt>
      <trkpt lat="51.828049" lon="8.596307">
        <ele>96.445435</ele>
        <time>2026-08-18T19:54:46.844Z</time>
      </trkpt>
      <trkpt lat="51.827351" lon="8.596186">
        <ele>96.900300</ele>
        <time>2026-08-18T19:55:02.788Z</time>
      </trkpt>
      <trkpt lat="51.826811" lon="8.596020">
        <ele>97.256458</ele>
        <time>2026-08-18T19:55:15.226Z</time>
      </trkpt>
      <trkpt lat="51.824712" lon="8.597348">
        <ele>98.685610</ele>
        <time>2026-08-18T19:56:07.113Z</time>
      </trkpt>
      <trkpt lat="51.824396" lon="8.597548">
        <ele>98.502142</ele>
        <time>2026-08-18T19:56:14.742Z</time>
      </trkpt>
      <trkpt lat="51.824308" lon="8.597698">
        <ele>98.433027</ele>
        <time>2026-08-18T19:56:17.507Z</time>
      </trkpt>
      <trkpt lat="51.824220" lon="8.598030">
        <ele>98.312303</ele>
        <time>2026-08-18T19:56:22.221Z</time>
      </trkpt>
      <trkpt lat="51.824129" lon="8.598778">
        <ele>98.057532</ele>
        <time>2026-08-18T19:56:31.803Z</time>
      </trkpt>
      <trkpt lat="51.824073" lon="8.599363">
        <ele>97.859698</ele>
        <time>2026-08-18T19:56:39.047Z</time>
      </trkpt>
      <trkpt lat="51.823990" lon="8.599829">
        <ele>97.742798</ele>
        <time>2026-08-18T19:56:44.856Z</time>
      </trkpt>
      <trkpt lat="51.823831" lon="8.600209">
        <ele>97.724821</ele>
        <time>2026-08-18T19:56:50.527Z</time>
      </trkpt>
      <trkpt lat="51.823611" lon="8.600697">
        <ele>97.701159</ele>
        <time>2026-08-18T19:56:58.304Z</time>
      </trkpt>
      <trkpt lat="51.823528" lon="8.600830">
        <ele>97.693755</ele>
        <time>2026-08-18T19:57:00.821Z</time>
      </trkpt>
      <trkpt lat="51.822131" lon="8.602069">
        <ele>97.841846</ele>
        <time>2026-08-18T19:57:37.347Z</time>
      </trkpt>
      <trkpt lat="51.822336" lon="8.602770">
        <ele>97.991560</ele>
        <time>2026-08-18T19:57:47.783Z</time>
      </trkpt>
      <trkpt lat="51.822317" lon="8.605973">
        <ele>98.173793</ele>
        <time>2026-08-18T19:58:29.430Z</time>
      </trkpt>
      <trkpt lat="51.822302" lon="8.608444">
        <ele>98.064845</ele>
        <time>2026-08-18T19:59:01.418Z</time>
      </trkpt>
      <trkpt lat="51.825057" lon="8.613615">
        <ele>97.594270</ele>
        <time>2026-08-18T20:00:29.199Z</time>
      </trkpt>
      <trkpt lat="51.825121" lon="8.613789">
        <ele>97.583843</ele>
        <time>2026-08-18T20:00:31.887Z</time>
      </trkpt>
      <trkpt lat="51.825633" lon="8.617331">
        <ele>98.090945</ele>
        <time>2026-08-18T20:01:20.342Z</time>
      </trkpt>
      <trkpt lat="51.825824" lon="8.617434">
        <ele>98.143933</ele>
        <time>2026-08-18T20:01:24.643Z</time>
      </trkpt>
      <trkpt lat="51.826015" lon="8.617625">
        <ele>98.203028</ele>
        <time>2026-08-18T20:01:29.428Z</time>
      </trkpt>
      <trkpt lat="51.826646" lon="8.618537">
        <ele>98.425709</ele>
        <time>2026-08-18T20:01:47.642Z</time>
      </trkpt>
      <trkpt lat="51.826597" lon="8.618707">
        <ele>98.466585</ele>
        <time>2026-08-18T20:01:50.150Z</time>
      </trkpt>
      <trkpt lat="51.826530" lon="8.619162">
        <ele>98.617725</ele>
        <time>2026-08-18T20:01:56.418Z</time>
      </trkpt>
      <trkpt lat="51.826479" lon="8.619497">
        <ele>98.729209</ele>
        <time>2026-08-18T20:02:01.075Z</time>
      </trkpt>
      <trkpt lat="51.826222" lon="8.621066">
        <ele>99.253706</ele>
        <time>2026-08-18T20:02:23.373Z</time>
      </trkpt>
      <trkpt lat="51.826067" lon="8.621815">
        <ele>99.440066</ele>
        <time>2026-08-18T20:02:34.087Z</time>
      </trkpt>
      <trkpt lat="51.825359" lon="8.624097">
        <ele>99.800918</ele>
        <time>2026-08-18T20:03:07.777Z</time>
      </trkpt>
      <trkpt lat="51.825035" lon="8.625202">
        <ele>99.888382</ele>
        <time>2026-08-18T20:03:23.952Z</time>
      </trkpt>
      <trkpt lat="51.824213" lon="8.628001">
        <ele>100.070557</ele>
        <time>2026-08-18T20:04:04.580Z</time>
      </trkpt>
      <trkpt lat="51.823882" lon="8.629129">
        <ele>100.125541</ele>
        <time>2026-08-18T20:04:20.797Z</time>
      </trkpt>
      <trkpt lat="51.823819" lon="8.629444">
        <ele>100.165896</ele>
        <time>2026-08-18T20:04:25.176Z</time>
      </trkpt>
      <trkpt lat="51.823821" lon="8.629804">
        <ele>100.270220</ele>
        <time>2026-08-18T20:04:29.983Z</time>
      </trkpt>
      <trkpt lat="51.823944" lon="8.630861">
        <ele>100.581895</ele>
        <time>2026-08-18T20:04:44.594Z</time>
      </trkpt>
      <trkpt lat="51.824018" lon="8.631588">
        <ele>100.795400</ele>
        <time>2026-08-18T20:04:54.714Z</time>
      </trkpt>
      <trkpt lat="51.824035" lon="8.631760">
        <ele>100.845875</ele>
        <time>2026-08-18T20:04:57.105Z</time>
      </trkpt>
      <trkpt lat="51.824091" lon="8.632264">
        <ele>100.981460</ele>
        <time>2026-08-18T20:05:04.073Z</time>
      </trkpt>
      <trkpt lat="51.824095" lon="8.632544">
        <ele>100.995566</ele>
        <time>2026-08-18T20:05:07.837Z</time>
      </trkpt>
      <trkpt lat="51.824002" lon="8.633924">
        <ele>101.065482</ele>
        <time>2026-08-18T20:05:26.083Z</time>
      </trkpt>
      <trkpt lat="51.824095" lon="8.634853">
        <ele>101.112881</ele>
        <time>2026-08-18T20:05:38.165Z</time>
      </trkpt>
      <trkpt lat="51.824148" lon="8.635373">
        <ele>101.178388</ele>
        <time>2026-08-18T20:05:44.946Z</time>
      </trkpt>
      <trkpt lat="51.824219" lon="8.635938">
        <ele>101.287714</ele>
        <time>2026-08-18T20:05:52.400Z</time>
      </trkpt>
      <trkpt lat="51.824261" lon="8.636097">
        <ele>101.320501</ele>
        <time>2026-08-18T20:05:54.653Z</time>
      </trkpt>
      <trkpt lat="51.824465" lon="8.636588">
        <ele>101.432684</ele>
        <time>2026-08-18T20:06:02.459Z</time>
      </trkpt>
      <trkpt lat="51.824566" lon="8.637157">
        <ele>101.544937</ele>
        <time>2026-08-18T20:06:10.429Z</time>
      </trkpt>
      <trkpt lat="51.824610" lon="8.637602">
        <ele>101.630389</ele>
        <time>2026-08-18T20:06:16.586Z</time>
      </trkpt>
      <trkpt lat="51.824702" lon="8.638514">
        <ele>102.051686</ele>
        <time>2026-08-18T20:06:29.366Z</time>
      </trkpt>
      <trkpt lat="51.824785" lon="8.639321">
        <ele>102.503934</ele>
        <time>2026-08-18T20:06:40.782Z</time>
      </trkpt>
      <trkpt lat="51.824931" lon="8.640583">
        <ele>103.213688</ele>
        <time>2026-08-18T20:07:03.006Z</time>
      </trkpt>
      <trkpt lat="51.825087" lon="8.642048">
        <ele>103.542528</ele>
        <time>2026-08-18T20:07:28.647Z</time>
      </trkpt>
      <trkpt lat="51.825288" lon="8.642311">
        <ele>103.621694</ele>
        <time>2026-08-18T20:07:35.819Z</time>
      </trkpt>
      <trkpt lat="51.825360" lon="8.642352">
        <ele>103.645070</ele>
        <time>2026-08-18T20:07:37.908Z</time>
      </trkpt>
      <trkpt lat="51.825275" lon="8.642778">
        <ele>103.729802</ele>
        <time>2026-08-18T20:07:45.518Z</time>
      </trkpt>
      <trkpt lat="51.825263" lon="8.642939">
        <ele>103.760497</ele>
        <time>2026-08-18T20:07:48.279Z</time>
      </trkpt>
      <trkpt lat="51.825279" lon="8.643044">
        <ele>103.780967</ele>
        <time>2026-08-18T20:07:50.109Z</time>
      </trkpt>
      <trkpt lat="51.825244" lon="8.643104">
        <ele>103.796583</ele>
        <time>2026-08-18T20:07:51.506Z</time>
      </trkpt>
      <trkpt lat="51.825248" lon="8.643161">
        <ele>103.807442</ele>
        <time>2026-08-18T20:07:52.464Z</time>
      </trkpt>
      <trkpt lat="51.824683" lon="8.644293">
        <ele>103.732260</ele>
        <time>2026-08-18T20:08:17.007Z</time>
      </trkpt>
      <trkpt lat="51.824621" lon="8.644408">
        <ele>103.720006</ele>
        <time>2026-08-18T20:08:19.569Z</time>
      </trkpt>
      <trkpt lat="51.824540" lon="8.644595">
        <ele>103.701670</ele>
        <time>2026-08-18T20:08:22.460Z</time>
      </trkpt>
      <trkpt lat="51.824152" lon="8.645491">
        <ele>103.613821</ele>
        <time>2026-08-18T20:08:36.514Z</time>
      </trkpt>
      <trkpt lat="51.823952" lon="8.645963">
        <ele>103.698027</ele>
        <time>2026-08-18T20:08:44.090Z</time>
      </trkpt>
      <trkpt lat="51.823561" lon="8.646892">
        <ele>103.942028</ele>
        <time>2026-08-18T20:08:59.245Z</time>
      </trkpt>
      <trkpt lat="51.823330" lon="8.647639">
        <ele>104.123365</ele>
        <time>2026-08-18T20:09:10.529Z</time>
      </trkpt>
      <trkpt lat="51.823048" lon="8.648573">
        <ele>104.339484</ele>
        <time>2026-08-18T20:09:24.621Z</time>
      </trkpt>
      <trkpt lat="51.823001" lon="8.648732">
        <ele>104.374549</ele>
        <time>2026-08-18T20:09:27.001Z</time>
      </trkpt>
      <trkpt lat="51.822763" lon="8.649532">
        <ele>104.551189</ele>
        <time>2026-08-18T20:09:38.831Z</time>
      </trkpt>
      <trkpt lat="51.822688" lon="8.649850">
        <ele>104.618906</ele>
        <time>2026-08-18T20:09:43.331Z</time>
      </trkpt>
      <trkpt lat="51.822643" lon="8.650164">
        <ele>104.683036</ele>
        <time>2026-08-18T20:09:47.599Z</time>
      </trkpt>
      <trkpt lat="51.822573" lon="8.651466">
        <ele>105.045535</ele>
        <time>2026-08-18T20:10:05.021Z</time>
      </trkpt>
      <trkpt lat="51.822491" lon="8.653018">
        <ele>105.601012</ele>
        <time>2026-08-18T20:10:26.135Z</time>
      </trkpt>
      <trkpt lat="51.822463" lon="8.653672">
        <ele>105.834793</ele>
        <time>2026-08-18T20:10:35.237Z</time>
      </trkpt>
      <trkpt lat="51.822433" lon="8.654194">
        <ele>106.133499</ele>
        <time>2026-08-18T20:10:42.518Z</time>
      </trkpt>
      <trkpt lat="51.822437" lon="8.654425">
        <ele>106.269984</ele>
        <time>2026-08-18T20:10:45.737Z</time>
      </trkpt>
      <trkpt lat="51.822438" lon="8.654495">
        <ele>106.311338</ele>
        <time>2026-08-18T20:10:46.723Z</time>
      </trkpt>
      <trkpt lat="51.822474" lon="8.654819">
        <ele>106.505765</ele>
        <time>2026-08-18T20:10:51.313Z</time>
      </trkpt>
      <trkpt lat="51.822509" lon="8.655105">
        <ele>106.677959</ele>
        <time>2026-08-18T20:10:55.392Z</time>
      </trkpt>
      <trkpt lat="51.822660" lon="8.655948">
        <ele>107.196331</ele>
        <time>2026-08-18T20:11:07.678Z</time>
      </trkpt>
      <trkpt lat="51.822733" lon="8.656190">
        <ele>107.355372</ele>
        <time>2026-08-18T20:11:11.448Z</time>
      </trkpt>
      <trkpt lat="51.822443" lon="8.656496">
        <ele>107.575075</ele>
        <time>2026-08-18T20:11:21.153Z</time>
      </trkpt>
      <trkpt lat="51.822002" lon="8.656991">
        <ele>107.597032</ele>
        <time>2026-08-18T20:11:36.090Z</time>
      </trkpt>
      <trkpt lat="51.821766" lon="8.657267">
        <ele>107.608945</ele>
        <time>2026-08-18T20:11:44.100Z</time>
      </trkpt>
      <trkpt lat="51.821504" lon="8.657565">
        <ele>107.622046</ele>
        <time>2026-08-18T20:11:52.817Z</time>
      </trkpt>
      <trkpt lat="51.821390" lon="8.657704">
        <ele>107.627886</ele>
        <time>2026-08-18T20:11:56.677Z</time>
      </trkpt>
      <trkpt lat="51.821202" lon="8.657228">
        <ele>107.642169</ele>
        <time>2026-08-18T20:12:08.758Z</time>
      </trkpt>
      <trkpt lat="51.821137" lon="8.657080">
        <ele>107.611736</ele>
        <time>2026-08-18T20:12:12.641Z</time>
      </trkpt>
      <trkpt lat="51.821072" lon="8.656933">
        <ele>107.564278</ele>
        <time>2026-08-18T20:12:16.491Z</time>
      </trkpt>
      <trkpt lat="51.820956" lon="8.656653">
        <ele>107.475771</ele>
        <time>2026-08-18T20:12:23.696Z</time>
      </trkpt>
      <trkpt lat="51.820581" lon="8.657070">
        <ele>107.282471</ele>
        <time>2026-08-18T20:12:32.690Z</time>
      </trkpt>
      <trkpt lat="51.820088" lon="8.657600">
        <ele>107.031024</ele>
        <time>2026-08-18T20:12:44.743Z</time>
      </trkpt>
      <trkpt lat="51.819964" lon="8.657302">
        <ele>106.936697</ele>
        <time>2026-08-18T20:12:50.865Z</time>
      </trkpt>
      <trkpt lat="51.819934" lon="8.657335">
        <ele>106.921286</ele>
        <time>2026-08-18T20:12:51.635Z</time>
      </trkpt>
      <trkpt lat="51.819850" lon="8.657133">
        <ele>106.878282</ele>
        <time>2026-08-18T20:12:54.947Z</time>
      </trkpt>
      <trkpt lat="51.819808" lon="8.657182">
        <ele>106.876952</ele>
        <time>2026-08-18T20:12:56.382Z</time>
      </trkpt>
      <trkpt lat="51.819190" lon="8.657798">
        <ele>106.858312</ele>
        <time>2026-08-18T20:13:16.221Z</time>
      </trkpt>
      <trkpt lat="51.819074" lon="8.657784">
        <ele>106.855325</ele>
        <time>2026-08-18T20:13:19.418Z</time>
      </trkpt>
      <trkpt lat="51.819059" lon="8.657864">
        <ele>106.853998</ele>
        <time>2026-08-18T20:13:20.499Z</time>
      </trkpt>
      <trkpt lat="51.818993" lon="8.657952">
        <ele>106.851802</ele>
        <time>2026-08-18T20:13:22.288Z</time>
      </trkpt>
      <trkpt lat="51.818495" lon="8.658393">
        <ele>106.837223</ele>
        <time>2026-08-18T20:13:34.531Z</time>
      </trkpt>
      <trkpt lat="51.818057" lon="8.658878">
        <ele>106.831058</ele>
        <time>2026-08-18T20:13:45.689Z</time>
      </trkpt>
      <trkpt lat="51.817666" lon="8.659408">
        <ele>106.827887</ele>
        <time>2026-08-18T20:13:56.370Z</time>
      </trkpt>
      <trkpt lat="51.817615" lon="8.659525">
        <ele>106.827337</ele>
        <time>2026-08-18T20:13:58.290Z</time>
      </trkpt>
      <trkpt lat="51.817267" lon="8.659906">
        <ele>106.824725</ele>
        <time>2026-08-18T20:14:07.478Z</time>
      </trkpt>
      <trkpt lat="51.817193" lon="8.659987">
        <ele>106.824170</ele>
        <time>2026-08-18T20:14:09.444Z</time>
      </trkpt>
      <trkpt lat="51.816931" lon="8.660269">
        <ele>106.824230</ele>
        <time>2026-08-18T20:14:16.071Z</time>
      </trkpt>
      <trkpt lat="51.816657" lon="8.660564">
        <ele>106.908201</ele>
        <time>2026-08-18T20:14:23.023Z</time>
      </trkpt>
      <trkpt lat="51.816353" lon="8.660898">
        <ele>107.001957</ele>
        <time>2026-08-18T20:14:30.917Z</time>
      </trkpt>
      <trkpt lat="51.816279" lon="8.660991">
        <ele>107.025864</ele>
        <time>2026-08-18T20:14:32.940Z</time>
      </trkpt>
      <trkpt lat="51.815886" lon="8.661413">
        <ele>107.146208</ele>
        <time>2026-08-18T20:14:43.187Z</time>
      </trkpt>
      <trkpt lat="51.815618" lon="8.661707">
        <ele>107.228822</ele>
        <time>2026-08-18T20:14:50.298Z</time>
      </trkpt>
      <trkpt lat="51.815509" lon="8.661834">
        <ele>107.263093</ele>
        <time>2026-08-18T20:14:53.223Z</time>
      </trkpt>
      <trkpt lat="51.815117" lon="8.662259">
        <ele>107.258211</ele>
        <time>2026-08-18T20:15:03.459Z</time>
      </trkpt>
      <trkpt lat="51.815099" lon="8.662275">
        <ele>107.257037</ele>
        <time>2026-08-18T20:15:03.897Z</time>
      </trkpt>
      <trkpt lat="51.814323" lon="8.660130">
        <ele>107.105527</ele>
        <time>2026-08-18T20:15:37.076Z</time>
      </trkpt>
      <trkpt lat="51.814043" lon="8.659365">
        <ele>106.854641</ele>
        <time>2026-08-18T20:15:48.721Z</time>
      </trkpt>
      <trkpt lat="51.813836" lon="8.658800">
        <ele>106.669298</ele>
        <time>2026-08-18T20:15:57.311Z</time>
      </trkpt>
      <trkpt lat="51.813730" lon="8.658522">
        <ele>106.577123</ele>
        <time>2026-08-18T20:16:01.543Z</time>
      </trkpt>
      <trkpt lat="51.813664" lon="8.658590">
        <ele>106.541402</ele>
        <time>2026-08-18T20:16:03.184Z</time>
      </trkpt>
      <trkpt lat="51.812986" lon="8.659285">
        <ele>106.309144</ele>
        <time>2026-08-18T20:16:19.998Z</time>
      </trkpt>
      <trkpt lat="51.812632" lon="8.659648">
        <ele>106.258626</ele>
        <time>2026-08-18T20:16:29.061Z</time>
      </trkpt>
      <trkpt lat="51.812416" lon="8.659884">
        <ele>106.227209</ele>
        <time>2026-08-18T20:16:34.744Z</time>
      </trkpt>
      <trkpt lat="51.812372" lon="8.659937">
        <ele>106.220597</ele>
        <time>2026-08-18T20:16:36.640Z</time>
      </trkpt>
      <trkpt lat="51.812307" lon="8.660046">
        <ele>106.209312</ele>
        <time>2026-08-18T20:16:38.707Z</time>
      </trkpt>
      <trkpt lat="51.812169" lon="8.660722">
        <ele>106.156265</ele>
        <time>2026-08-18T20:16:48.420Z</time>
      </trkpt>
      <trkpt lat="51.810788" lon="8.662220">
        <ele>106.350706</ele>
        <time>2026-08-18T20:17:25.698Z</time>
      </trkpt>
      <trkpt lat="51.809681" lon="8.663382">
        <ele>106.232552</ele>
        <time>2026-08-18T20:17:54.028Z</time>
      </trkpt>
      <trkpt lat="51.808601" lon="8.660823">
        <ele>105.943867</ele>
        <time>2026-08-18T20:18:33.976Z</time>
      </trkpt>
      <trkpt lat="51.808364" lon="8.660262">
        <ele>105.879563</ele>
        <time>2026-08-18T20:18:42.702Z</time>
      </trkpt>
      <trkpt lat="51.808142" lon="8.659736">
        <ele>105.791207</ele>
        <time>2026-08-18T20:18:50.850Z</time>
      </trkpt>
      <trkpt lat="51.807860" lon="8.659076">
        <ele>105.640051</ele>
        <time>2026-08-18T20:19:01.079Z</time>
      </trkpt>
      <trkpt lat="51.806888" lon="8.656805">
        <ele>105.128132</ele>
        <time>2026-08-18T20:19:35.931Z</time>
      </trkpt>
      <trkpt lat="51.806842" lon="8.656880">
        <ele>105.109167</ele>
        <time>2026-08-18T20:19:37.293Z</time>
      </trkpt>
      <trkpt lat="51.806888" lon="8.656805">
        <ele>105.090201</ele>
        <time>2026-08-18T20:19:38.653Z</time>
      </trkpt>
      <trkpt lat="51.804965" lon="8.652295">
        <ele>104.425609</ele>
        <time>2026-08-18T20:20:48.610Z</time>
      </trkpt>
      <trkpt lat="51.804283" lon="8.650707">
        <ele>104.435735</ele>
        <time>2026-08-18T20:21:14.264Z</time>
      </trkpt>
      <trkpt lat="51.804251" lon="8.650632">
        <ele>104.436213</ele>
        <time>2026-08-18T20:21:15.443Z</time>
      </trkpt>
      <trkpt lat="51.803855" lon="8.649693">
        <ele>104.388938</ele>
        <time>2026-08-18T20:21:30.129Z</time>
      </trkpt>
      <trkpt lat="51.803790" lon="8.649534">
        <ele>104.380533</ele>
        <time>2026-08-18T20:21:32.562Z</time>
      </trkpt>
      <trkpt lat="51.803519" lon="8.648856">
        <ele>104.344932</ele>
        <time>2026-08-18T20:21:42.863Z</time>
      </trkpt>
      <trkpt lat="51.803456" lon="8.648715">
        <ele>104.337261</ele>
        <time>2026-08-18T20:21:45.179Z</time>
      </trkpt>
      <trkpt lat="51.802345" lon="8.646113">
        <ele>104.287751</ele>
        <time>2026-08-18T20:22:26.394Z</time>
      </trkpt>
      <trkpt lat="51.802269" lon="8.645933">
        <ele>104.285967</ele>
        <time>2026-08-18T20:22:29.258Z</time>
      </trkpt>
      <trkpt lat="51.802048" lon="8.645406">
        <ele>104.253196</ele>
        <time>2026-08-18T20:22:37.561Z</time>
      </trkpt>
      <trkpt lat="51.801653" lon="8.644493">
        <ele>104.175850</ele>
        <time>2026-08-18T20:22:51.939Z</time>
      </trkpt>
      <trkpt lat="51.801478" lon="8.644079">
        <ele>104.141040</ele>
        <time>2026-08-18T20:22:58.354Z</time>
      </trkpt>
      <trkpt lat="51.801326" lon="8.643717">
        <ele>104.110667</ele>
        <time>2026-08-18T20:23:03.954Z</time>
      </trkpt>
      <trkpt lat="51.799939" lon="8.640458">
        <ele>104.034031</ele>
        <time>2026-08-18T20:23:55.140Z</time>
      </trkpt>
      <trkpt lat="51.798974" lon="8.638192">
        <ele>104.332883</ele>
        <time>2026-08-18T20:24:31.876Z</time>
      </trkpt>
      <trkpt lat="51.798598" lon="8.637459">
        <ele>104.398562</ele>
        <time>2026-08-18T20:24:44.585Z</time>
      </trkpt>
      <trkpt lat="51.797313" lon="8.634965">
        <ele>104.579869</ele>
        <time>2026-08-18T20:25:26.859Z</time>
      </trkpt>
      <trkpt lat="51.795572" lon="8.631587">
        <ele>104.754672</ele>
        <time>2026-08-18T20:26:25.063Z</time>
      </trkpt>
      <trkpt lat="51.795163" lon="8.630791">
        <ele>104.459877</ele>
        <time>2026-08-18T20:26:37.913Z</time>
      </trkpt>
      <trkpt lat="51.795140" lon="8.630745">
        <ele>104.443027</ele>
        <time>2026-08-18T20:26:38.635Z</time>
      </trkpt>
      <trkpt lat="51.794820" lon="8.630084">
        <ele>104.203906</ele>
        <time>2026-08-18T20:26:48.866Z</time>
      </trkpt>
      <trkpt lat="51.795096" lon="8.629606">
        <ele>104.030441</ele>
        <time>2026-08-18T20:26:56.939Z</time>
      </trkpt>
      <trkpt lat="51.795321" lon="8.629121">
        <ele>104.078943</ele>
        <time>2026-08-18T20:27:04.546Z</time>
      </trkpt>
      <trkpt lat="51.796042" lon="8.627400">
        <ele>104.245232</ele>
        <time>2026-08-18T20:27:32.405Z</time>
      </trkpt>
      <trkpt lat="51.795972" lon="8.627333">
        <ele>104.255754</ele>
        <time>2026-08-18T20:27:34.188Z</time>
      </trkpt>
      <trkpt lat="51.794795" lon="8.626290">
        <ele>104.747964</ele>
        <time>2026-08-18T20:28:03.545Z</time>
      </trkpt>
      <trkpt lat="51.793842" lon="8.625700">
        <ele>105.026466</ele>
        <time>2026-08-18T20:28:25.286Z</time>
      </trkpt>
      <trkpt lat="51.793290" lon="8.625374">
        <ele>105.132160</ele>
        <time>2026-08-18T20:28:37.981Z</time>
      </trkpt>
      <trkpt lat="51.793179" lon="8.625308">
        <ele>105.153431</ele>
        <time>2026-08-18T20:28:40.513Z</time>
      </trkpt>
      <trkpt lat="51.793019" lon="8.625184">
        <ele>105.185342</ele>
        <time>2026-08-18T20:28:44.313Z</time>
      </trkpt>
      <trkpt lat="51.792955" lon="8.624997">
        <ele>105.209116</ele>
        <time>2026-08-18T20:28:47.112Z</time>
      </trkpt>
      <trkpt lat="51.793041" lon="8.624614">
        <ele>105.254442</ele>
        <time>2026-08-18T20:28:52.445Z</time>
      </trkpt>
      <trkpt lat="51.793087" lon="8.624407">
        <ele>105.264425</ele>
        <time>2026-08-18T20:28:55.356Z</time>
      </trkpt>
      <trkpt lat="51.793179" lon="8.624129">
        <ele>105.278415</ele>
        <time>2026-08-18T20:28:59.541Z</time>
      </trkpt>
      <trkpt lat="51.793458" lon="8.623451">
        <ele>105.314549</ele>
        <time>2026-08-18T20:29:10.488Z</time>
      </trkpt>
      <trkpt lat="51.794111" lon="8.622207">
        <ele>105.370285</ele>
        <time>2026-08-18T20:29:31.618Z</time>
      </trkpt>
      <trkpt lat="51.794433" lon="8.621658">
        <ele>105.223259</ele>
        <time>2026-08-18T20:29:41.338Z</time>
      </trkpt>
      <trkpt lat="51.794936" lon="8.620882">
        <ele>105.004821</ele>
        <time>2026-08-18T20:29:55.790Z</time>
      </trkpt>
      <trkpt lat="51.794992" lon="8.620721">
        <ele>104.968927</ele>
        <time>2026-08-18T20:29:58.125Z</time>
      </trkpt>
      <trkpt lat="51.795103" lon="8.620338">
        <ele>104.886736</ele>
        <time>2026-08-18T20:30:03.408Z</time>
      </trkpt>
      <trkpt lat="51.794999" lon="8.620359">
        <ele>104.853806</ele>
        <time>2026-08-18T20:30:05.592Z</time>
      </trkpt>
      <trkpt lat="51.794782" lon="8.620389">
        <ele>104.735997</ele>
        <time>2026-08-18T20:30:10.103Z</time>
      </trkpt>
      <trkpt lat="51.794684" lon="8.620339">
        <ele>104.655904</ele>
        <time>2026-08-18T20:30:12.225Z</time>
      </trkpt>
      <trkpt lat="51.794590" lon="8.620220">
        <ele>104.562856</ele>
        <time>2026-08-18T20:30:14.688Z</time>
      </trkpt>
      <trkpt lat="51.793998" lon="8.619105">
        <ele>103.854499</ele>
        <time>2026-08-18T20:30:33.412Z</time>
      </trkpt>
      <trkpt lat="51.793750" lon="8.618701">
        <ele>103.580115</ele>
        <time>2026-08-18T20:30:40.636Z</time>
      </trkpt>
      <trkpt lat="51.793603" lon="8.618452">
        <ele>103.413832</ele>
        <time>2026-08-18T20:30:45.040Z</time>
      </trkpt>
      <trkpt lat="51.793128" lon="8.617542">
        <ele>102.765494</ele>
        <time>2026-08-18T20:31:00.064Z</time>
      </trkpt>
      <trkpt lat="51.793047" lon="8.617395">
        <ele>102.658300</ele>
        <time>2026-08-18T20:31:02.541Z</time>
      </trkpt>
      <trkpt lat="51.792714" lon="8.617171">
        <ele>102.340795</ele>
        <time>2026-08-18T20:31:09.976Z</time>
      </trkpt>
      <trkpt lat="51.792842" lon="8.616692">
        <ele>102.056687</ele>
        <time>2026-08-18T20:31:16.336Z</time>
      </trkpt>
      <trkpt lat="51.792993" lon="8.616409">
        <ele>101.853186</ele>
        <time>2026-08-18T20:31:20.847Z</time>
      </trkpt>
      <trkpt lat="51.793160" lon="8.615893">
        <ele>101.529820</ele>
        <time>2026-08-18T20:31:27.811Z</time>
      </trkpt>
      <trkpt lat="51.793417" lon="8.615466">
        <ele>101.198572</ele>
        <time>2026-08-18T20:31:34.901Z</time>
      </trkpt>
      <trkpt lat="51.793720" lon="8.614980">
        <ele>100.814921</ele>
        <time>2026-08-18T20:31:43.239Z</time>
      </trkpt>
      <trkpt lat="51.793786" lon="8.614820">
        <ele>100.707999</ele>
        <time>2026-08-18T20:31:45.592Z</time>
      </trkpt>
      <trkpt lat="51.793805" lon="8.614776">
        <ele>100.678165</ele>
        <time>2026-08-18T20:31:46.254Z</time>
      </trkpt>
      <trkpt lat="51.793880" lon="8.614643">
        <ele>100.578102</ele>
        <time>2026-08-18T20:31:48.450Z</time>
      </trkpt>
      <trkpt lat="51.794223" lon="8.614038">
        <ele>100.181202</ele>
        <time>2026-08-18T20:31:58.369Z</time>
      </trkpt>
      <trkpt lat="51.794258" lon="8.613943">
        <ele>100.158190</ele>
        <time>2026-08-18T20:31:59.693Z</time>
      </trkpt>
      <trkpt lat="51.794342" lon="8.613489">
        <ele>100.059574</ele>
        <time>2026-08-18T20:32:05.419Z</time>
      </trkpt>
      <trkpt lat="51.794738" lon="8.613260">
        <ele>99.918066</ele>
        <time>2026-08-18T20:32:13.856Z</time>
      </trkpt>
      <trkpt lat="51.794916" lon="8.613115">
        <ele>99.851002</ele>
        <time>2026-08-18T20:32:17.973Z</time>
      </trkpt>
      <trkpt lat="51.794967" lon="8.613057">
        <ele>99.830023</ele>
        <time>2026-08-18T20:32:19.296Z</time>
      </trkpt>
      <trkpt lat="51.795216" lon="8.612654">
        <ele>99.711480</ele>
        <time>2026-08-18T20:32:26.800Z</time>
      </trkpt>
      <trkpt lat="51.795266" lon="8.612595">
        <ele>99.690652</ele>
        <time>2026-08-18T20:32:28.115Z</time>
      </trkpt>
      <trkpt lat="51.795515" lon="8.612303">
        <ele>99.608969</ele>
        <time>2026-08-18T20:32:34.735Z</time>
      </trkpt>
      <trkpt lat="51.795562" lon="8.612227">
        <ele>99.606614</ele>
        <time>2026-08-18T20:32:36.182Z</time>
      </trkpt>
      <trkpt lat="51.795604" lon="8.612157">
        <ele>99.604477</ele>
        <time>2026-08-18T20:32:37.474Z</time>
      </trkpt>
      <trkpt lat="51.795722" lon="8.611870">
        <ele>99.596925</ele>
        <time>2026-08-18T20:32:42.096Z</time>
      </trkpt>
      <trkpt lat="51.795732" lon="8.611826">
        <ele>99.595898</ele>
        <time>2026-08-18T20:32:42.718Z</time>
      </trkpt>
      <trkpt lat="51.795809" lon="8.611315">
        <ele>99.584373</ele>
        <time>2026-08-18T20:32:49.681Z</time>
      </trkpt>
      <trkpt lat="51.795827" lon="8.611193">
        <ele>99.581625</ele>
        <time>2026-08-18T20:32:51.328Z</time>
      </trkpt>
      <trkpt lat="51.795883" lon="8.610743">
        <ele>99.571567</ele>
        <time>2026-08-18T20:32:57.378Z</time>
      </trkpt>
      <trkpt lat="51.795921" lon="8.610284">
        <ele>99.561420</ele>
        <time>2026-08-18T20:33:03.444Z</time>
      </trkpt>
      <trkpt lat="51.796055" lon="8.609525">
        <ele>99.392685</ele>
        <time>2026-08-18T20:33:13.496Z</time>
      </trkpt>
      <trkpt lat="51.796200" lon="8.608761">
        <ele>98.655836</ele>
        <time>2026-08-18T20:33:23.075Z</time>
      </trkpt>
      <trkpt lat="51.796347" lon="8.608023">
        <ele>97.940963</ele>
        <time>2026-08-18T20:33:31.687Z</time>
      </trkpt>
      <trkpt lat="51.796295" lon="8.608000">
        <ele>97.860591</ele>
        <time>2026-08-18T20:33:32.625Z</time>
      </trkpt>
      <trkpt lat="51.795502" lon="8.607988">
        <ele>96.632073</ele>
        <time>2026-08-18T20:33:46.455Z</time>
      </trkpt>
      <trkpt lat="51.795429" lon="8.607591">
        <ele>96.156286</ele>
        <time>2026-08-18T20:33:50.822Z</time>
      </trkpt>
      <trkpt lat="51.795149" lon="8.605391">
        <ele>93.576051</ele>
        <time>2026-08-18T20:34:15.491Z</time>
      </trkpt>
      <trkpt lat="51.795049" lon="8.604278">
        <ele>92.818876</ele>
        <time>2026-08-18T20:34:28.748Z</time>
      </trkpt>
      <trkpt lat="51.793777" lon="8.600927">
        <ele>90.677208</ele>
        <time>2026-08-18T20:35:16.402Z</time>
      </trkpt>
      <trkpt lat="51.793778" lon="8.600653">
        <ele>90.553933</ele>
        <time>2026-08-18T20:35:19.797Z</time>
      </trkpt>
      <trkpt lat="51.794554" lon="8.595863">
        <ele>89.193961</ele>
        <time>2026-08-18T20:36:22.456Z</time>
      </trkpt>
      <trkpt lat="51.795215" lon="8.591371">
        <ele>87.665164</ele>
        <time>2026-08-18T20:37:19.588Z</time>
      </trkpt>
      <trkpt lat="51.795990" lon="8.586360">
        <ele>86.395267</ele>
        <time>2026-08-18T20:38:24.789Z</time>
      </trkpt>
      <trkpt lat="51.796046" lon="8.585997">
        <ele>86.310282</ele>
        <time>2026-08-18T20:38:29.500Z</time>
      </trkpt>
      <trkpt lat="51.796169" lon="8.585203">
        <ele>86.175456</ele>
        <time>2026-08-18T20:38:39.832Z</time>
      </trkpt>
      <trkpt lat="51.796223" lon="8.584526">
        <ele>86.063019</ele>
        <time>2026-08-18T20:38:48.477Z</time>
      </trkpt>
      <trkpt lat="51.796326" lon="8.583823">
        <ele>85.944019</ele>
        <time>2026-08-18T20:38:57.658Z</time>
      </trkpt>
      <trkpt lat="51.798668" lon="8.569738">
        <ele>84.503123</ele>
        <time>2026-08-18T20:42:04.955Z</time>
      </trkpt>
      <trkpt lat="51.798792" lon="8.568860">
        <ele>84.440295</ele>
        <time>2026-08-18T20:42:16.873Z</time>
      </trkpt>
      <trkpt lat="51.798785" lon="8.568678">
        <ele>84.423253</ele>
        <time>2026-08-18T20:42:19.284Z</time>
      </trkpt>
      <trkpt lat="51.798352" lon="8.567367">
        <ele>84.284354</ele>
        <time>2026-08-18T20:42:38.612Z</time>
      </trkpt>
      <trkpt lat="51.797436" lon="8.564843">
        <ele>83.954990</ele>
        <time>2026-08-18T20:43:15.190Z</time>
      </trkpt>
      <trkpt lat="51.797407" lon="8.564584">
        <ele>83.922979</ele>
        <time>2026-08-18T20:43:18.589Z</time>
      </trkpt>
      <trkpt lat="51.797593" lon="8.561558">
        <ele>84.433229</ele>
        <time>2026-08-18T20:43:59.739Z</time>
      </trkpt>
      <trkpt lat="51.797643" lon="8.560350">
        <ele>84.690697</ele>
        <time>2026-08-18T20:44:15.936Z</time>
      </trkpt>
      <trkpt lat="51.797678" lon="8.560191">
        <ele>84.721933</ele>
        <time>2026-08-18T20:44:18.170Z</time>
      </trkpt>
      <trkpt lat="51.797692" lon="8.559729">
        <ele>84.807540</ele>
        <time>2026-08-18T20:44:24.293Z</time>
      </trkpt>
      <trkpt lat="51.797711" lon="8.559090">
        <ele>84.925940</ele>
        <time>2026-08-18T20:44:32.831Z</time>
      </trkpt>
      <trkpt lat="51.797656" lon="8.558574">
        <ele>85.022847</ele>
        <time>2026-08-18T20:44:39.822Z</time>
      </trkpt>
      <trkpt lat="51.797542" lon="8.557647">
        <ele>85.258029</ele>
        <time>2026-08-18T20:44:56.087Z</time>
      </trkpt>
      <trkpt lat="51.797524" lon="8.557119">
        <ele>85.417965</ele>
        <time>2026-08-18T20:45:05.178Z</time>
      </trkpt>
      <trkpt lat="51.797565" lon="8.556740">
        <ele>85.534334</ele>
        <time>2026-08-18T20:45:11.820Z</time>
      </trkpt>
      <trkpt lat="51.797641" lon="8.556183">
        <ele>85.706851</ele>
        <time>2026-08-18T20:45:21.671Z</time>
      </trkpt>
      <trkpt lat="51.797336" lon="8.555841">
        <ele>85.888368</ele>
        <time>2026-08-18T20:45:32.050Z</time>
      </trkpt>
      <trkpt lat="51.797297" lon="8.555758">
        <ele>85.919895</ele>
        <time>2026-08-18T20:45:33.842Z</time>
      </trkpt>
      <trkpt lat="51.796749" lon="8.554602">
        <ele>86.188323</ele>
        <time>2026-08-18T20:45:58.887Z</time>
      </trkpt>
      <trkpt lat="51.796662" lon="8.554416">
        <ele>86.226746</ele>
        <time>2026-08-18T20:46:02.900Z</time>
      </trkpt>
      <trkpt lat="51.796630" lon="8.554348">
        <ele>86.240824</ele>
        <time>2026-08-18T20:46:04.375Z</time>
      </trkpt>
      <trkpt lat="51.796612" lon="8.554309">
        <ele>86.248842</ele>
        <time>2026-08-18T20:46:05.214Z</time>
      </trkpt>
      <trkpt lat="51.796437" lon="8.553963">
        <ele>86.322486</ele>
        <time>2026-08-18T20:46:12.923Z</time>
      </trkpt>
      <trkpt lat="51.796439" lon="8.553871">
        <ele>86.337653</ele>
        <time>2026-08-18T20:46:14.493Z</time>
      </trkpt>
      <trkpt lat="51.796392" lon="8.553845">
        <ele>86.350887</ele>
        <time>2026-08-18T20:46:15.880Z</time>
      </trkpt>
      <trkpt lat="51.796304" lon="8.553795">
        <ele>86.375736</ele>
        <time>2026-08-18T20:46:18.471Z</time>
      </trkpt>
      <trkpt lat="51.796321" lon="8.553721">
        <ele>86.388742</ele>
        <time>2026-08-18T20:46:19.535Z</time>
      </trkpt>
      <trkpt lat="51.796278" lon="8.553695">
        <ele>86.400973</ele>
        <time>2026-08-18T20:46:20.511Z</time>
      </trkpt>
      <trkpt lat="51.796118" lon="8.553530">
        <ele>86.451529</ele>
        <time>2026-08-18T20:46:24.501Z</time>
      </trkpt>
      <trkpt lat="51.796049" lon="8.553390">
        <ele>86.435867</ele>
        <time>2026-08-18T20:46:26.787Z</time>
      </trkpt>
      <trkpt lat="51.795960" lon="8.552898">
        <ele>86.324384</ele>
        <time>2026-08-18T20:46:33.186Z</time>
      </trkpt>
      <trkpt lat="51.795914" lon="8.552540">
        <ele>86.244863</ele>
        <time>2026-08-18T20:46:37.767Z</time>
      </trkpt>
      <trkpt lat="51.795847" lon="8.551974">
        <ele>86.119535</ele>
        <time>2026-08-18T20:46:45.019Z</time>
      </trkpt>
      <trkpt lat="51.795822" lon="8.551766">
        <ele>86.073453</ele>
        <time>2026-08-18T20:46:47.689Z</time>
      </trkpt>
      <trkpt lat="51.795758" lon="8.551274">
        <ele>85.964112</ele>
        <time>2026-08-18T20:46:54.025Z</time>
      </trkpt>
      <trkpt lat="51.795752" lon="8.551232">
        <ele>85.954737</ele>
        <time>2026-08-18T20:46:54.552Z</time>
      </trkpt>
      <trkpt lat="51.795672" lon="8.550624">
        <ele>85.822041</ele>
        <time>2026-08-18T20:47:02.325Z</time>
      </trkpt>
      <trkpt lat="51.795574" lon="8.549876">
        <ele>85.699248</ele>
        <time>2026-08-18T20:47:11.933Z</time>
      </trkpt>
      <trkpt lat="51.795389" lon="8.548475">
        <ele>85.469178</ele>
        <time>2026-08-18T20:47:30.262Z</time>
      </trkpt>
      <trkpt lat="51.795370" lon="8.548334">
        <ele>85.446003</ele>
        <time>2026-08-18T20:47:32.101Z</time>
      </trkpt>
      <trkpt lat="51.795255" lon="8.547473">
        <ele>85.357464</ele>
        <time>2026-08-18T20:47:43.470Z</time>
      </trkpt>
      <trkpt lat="51.795194" lon="8.547121">
        <ele>85.352810</ele>
        <time>2026-08-18T20:47:48.207Z</time>
      </trkpt>
      <trkpt lat="51.794749" lon="8.545742">
        <ele>85.333005</ele>
        <time>2026-08-18T20:48:08.513Z</time>
      </trkpt>
      <trkpt lat="51.793895" lon="8.543095">
        <ele>85.411821</ele>
        <time>2026-08-18T20:48:47.583Z</time>
      </trkpt>
      <trkpt lat="51.793737" lon="8.542517">
        <ele>85.434027</ele>
        <time>2026-08-18T20:48:55.908Z</time>
      </trkpt>
      <trkpt lat="51.793612" lon="8.541947">
        <ele>85.448134</ele>
        <time>2026-08-18T20:49:03.891Z</time>
      </trkpt>
      <trkpt lat="51.793422" lon="8.540617">
        <ele>85.479976</ele>
        <time>2026-08-18T20:49:21.719Z</time>
      </trkpt>
      <trkpt lat="51.793366" lon="8.540270">
        <ele>85.488341</ele>
        <time>2026-08-18T20:49:26.363Z</time>
      </trkpt>
      <trkpt lat="51.793032" lon="8.538837">
        <ele>85.518498</ele>
        <time>2026-08-18T20:49:46.347Z</time>
      </trkpt>
      <trkpt lat="51.792763" lon="8.538011">
        <ele>85.535238</ele>
        <time>2026-08-18T20:49:58.423Z</time>
      </trkpt>
      <trkpt lat="51.792553" lon="8.537437">
        <ele>85.547197</ele>
        <time>2026-08-18T20:50:07.200Z</time>
      </trkpt>
      <trkpt lat="51.792387" lon="8.537105">
        <ele>85.547976</ele>
        <time>2026-08-18T20:50:12.891Z</time>
      </trkpt>
      <trkpt lat="51.792143" lon="8.536867">
        <ele>85.535254</ele>
        <time>2026-08-18T20:50:18.945Z</time>
      </trkpt>
      <trkpt lat="51.792010" lon="8.536696">
        <ele>85.527668</ele>
        <time>2026-08-18T20:50:22.547Z</time>
      </trkpt>
      <trkpt lat="51.791955" lon="8.536588">
        <ele>85.523805</ele>
        <time>2026-08-18T20:50:24.361Z</time>
      </trkpt>
      <trkpt lat="51.791753" lon="8.535922">
        <ele>85.503323</ele>
        <time>2026-08-18T20:50:34.044Z</time>
      </trkpt>
      <trkpt lat="51.791660" lon="8.535772">
        <ele>85.497458</ele>
        <time>2026-08-18T20:50:36.827Z</time>
      </trkpt>
      <trkpt lat="51.791275" lon="8.535298">
        <ele>85.475855</ele>
        <time>2026-08-18T20:50:46.922Z</time>
      </trkpt>
      <trkpt lat="51.790874" lon="8.534660">
        <ele>85.312114</ele>
        <time>2026-08-18T20:50:58.461Z</time>
      </trkpt>
      <trkpt lat="51.789693" lon="8.532077">
        <ele>84.649022</ele>
        <time>2026-08-18T20:51:38.856Z</time>
      </trkpt>
      <trkpt lat="51.789584" lon="8.531833">
        <ele>84.588402</ele>
        <time>2026-08-18T20:51:42.669Z</time>
      </trkpt>
      <trkpt lat="51.789101" lon="8.530760">
        <ele>84.321119</ele>
        <time>2026-08-18T20:51:59.572Z</time>
      </trkpt>
      <trkpt lat="51.788862" lon="8.530236">
        <ele>84.169159</ele>
        <time>2026-08-18T20:52:07.944Z</time>
      </trkpt>
      <trkpt lat="51.788644" lon="8.529840">
        <ele>84.037284</ele>
        <time>2026-08-18T20:52:14.732Z</time>
      </trkpt>
      <trkpt lat="51.788033" lon="8.528979">
        <ele>83.711313</ele>
        <time>2026-08-18T20:52:30.955Z</time>
      </trkpt>
      <trkpt lat="51.787809" lon="8.528648">
        <ele>83.589265</ele>
        <time>2026-08-18T20:52:37.129Z</time>
      </trkpt>
      <trkpt lat="51.787427" lon="8.528124">
        <ele>83.563517</ele>
        <time>2026-08-18T20:52:47.369Z</time>
      </trkpt>
      <trkpt lat="51.787002" lon="8.527496">
        <ele>83.574963</ele>
        <time>2026-08-18T20:52:59.252Z</time>
      </trkpt>
      <trkpt lat="51.786548" lon="8.526714">
        <ele>83.588151</ele>
        <time>2026-08-18T20:53:13.674Z</time>
      </trkpt>
      <trkpt lat="51.786210" lon="8.526022">
        <ele>83.708613</ele>
        <time>2026-08-18T20:53:25.688Z</time>
      </trkpt>
      <trkpt lat="51.785915" lon="8.525119">
        <ele>83.893272</ele>
        <time>2026-08-18T20:53:39.543Z</time>
      </trkpt>
      <trkpt lat="51.785761" lon="8.524322">
        <ele>84.044259</ele>
        <time>2026-08-18T20:53:50.663Z</time>
      </trkpt>
      <trkpt lat="51.785734" lon="8.524138">
        <ele>84.078455</ele>
        <time>2026-08-18T20:53:53.149Z</time>
      </trkpt>
      <trkpt lat="51.785666" lon="8.523649">
        <ele>84.026765</ele>
        <time>2026-08-18T20:53:59.647Z</time>
      </trkpt>
      <trkpt lat="51.785309" lon="8.521077">
        <ele>83.206914</ele>
        <time>2026-08-18T20:54:32.233Z</time>
      </trkpt>
      <trkpt lat="51.785280" lon="8.520883">
        <ele>83.146658</ele>
        <time>2026-08-18T20:54:34.793Z</time>
      </trkpt>
      <trkpt lat="51.785210" lon="8.520540">
        <ele>83.037612</ele>
        <time>2026-08-18T20:54:39.239Z</time>
      </trkpt>
      <trkpt lat="51.785128" lon="8.520351">
        <ele>82.967916</ele>
        <time>2026-08-18T20:54:42.099Z</time>
      </trkpt>
      <trkpt lat="51.784200" lon="8.518908">
        <ele>82.339481</ele>
        <time>2026-08-18T20:55:08.204Z</time>
      </trkpt>
      <trkpt lat="51.783534" lon="8.517668">
        <ele>82.041191</ele>
        <time>2026-08-18T20:55:29.002Z</time>
      </trkpt>
      <trkpt lat="51.783461" lon="8.517599">
        <ele>82.016530</ele>
        <time>2026-08-18T20:55:30.727Z</time>
      </trkpt>
      <trkpt lat="51.783299" lon="8.517618">
        <ele>81.969162</ele>
        <time>2026-08-18T20:55:34.032Z</time>
      </trkpt>
      <trkpt lat="51.782328" lon="8.518103">
        <ele>81.768109</ele>
        <time>2026-08-18T20:55:54.997Z</time>
      </trkpt>
      <trkpt lat="51.781526" lon="8.514005">
        <ele>81.819098</ele>
        <time>2026-08-18T20:56:50.907Z</time>
      </trkpt>
      <trkpt lat="51.781557" lon="8.513988">
        <ele>81.823257</ele>
        <time>2026-08-18T20:56:51.620Z</time>
      </trkpt>
      <trkpt lat="51.781618" lon="8.513943">
        <ele>81.831776</ele>
        <time>2026-08-18T20:56:53.066Z</time>
      </trkpt>
      <trkpt lat="51.782927" lon="8.512415">
        <ele>82.673679</ele>
        <time>2026-08-18T20:57:28.757Z</time>
      </trkpt>
      <trkpt lat="51.783206" lon="8.512175">
        <ele>82.875294</ele>
        <time>2026-08-18T20:57:35.775Z</time>
      </trkpt>
      <trkpt lat="51.783191" lon="8.512041">
        <ele>82.929036</ele>
        <time>2026-08-18T20:57:37.662Z</time>
      </trkpt>
      <trkpt lat="51.783456" lon="8.511110">
        <ele>83.252436</ele>
        <time>2026-08-18T20:57:51.741Z</time>
      </trkpt>
      <trkpt lat="51.783649" lon="8.510293">
        <ele>83.506612</ele>
        <time>2026-08-18T20:58:03.645Z</time>
      </trkpt>
      <trkpt lat="51.783739" lon="8.509812">
        <ele>83.652663</ele>
        <time>2026-08-18T20:58:10.416Z</time>
      </trkpt>
      <trkpt lat="51.783775" lon="8.509417">
        <ele>83.768705</ele>
        <time>2026-08-18T20:58:15.753Z</time>
      </trkpt>
      <trkpt lat="51.783774" lon="8.509004">
        <ele>83.861576</ele>
        <time>2026-08-18T20:58:21.226Z</time>
      </trkpt>
      <trkpt lat="51.783594" lon="8.507126">
        <ele>83.568834</ele>
        <time>2026-08-18T20:58:45.780Z</time>
      </trkpt>
      <trkpt lat="51.783496" lon="8.506158">
        <ele>83.406748</ele>
        <time>2026-08-18T20:58:58.014Z</time>
      </trkpt>
      <trkpt lat="51.783177" lon="8.503011">
        <ele>81.999860</ele>
        <time>2026-08-18T20:59:36.596Z</time>
      </trkpt>
      <trkpt lat="51.782877" lon="8.499761">
        <ele>81.492011</ele>
        <time>2026-08-18T21:00:18.744Z</time>
      </trkpt>
      <trkpt lat="51.782772" lon="8.498704">
        <ele>81.470620</ele>
        <time>2026-08-18T21:00:32.886Z</time>
      </trkpt>
      <trkpt lat="51.782696" lon="8.497939">
        <ele>81.455139</ele>
        <time>2026-08-18T21:00:43.062Z</time>
      </trkpt>
      <trkpt lat="51.782356" lon="8.495755">
        <ele>81.290442</ele>
        <time>2026-08-18T21:01:11.965Z</time>
      </trkpt>
      <trkpt lat="51.782008" lon="8.493721">
        <ele>81.165766</ele>
        <time>2026-08-18T21:01:39.120Z</time>
      </trkpt>
      <trkpt lat="51.781918" lon="8.493182">
        <ele>81.145584</ele>
        <time>2026-08-18T21:01:46.351Z</time>
      </trkpt>
      <trkpt lat="51.781451" lon="8.490383">
        <ele>81.144048</ele>
        <time>2026-08-18T21:02:24.237Z</time>
      </trkpt>
      <trkpt lat="51.781307" lon="8.489514">
        <ele>81.168243</ele>
        <time>2026-08-18T21:02:36.058Z</time>
      </trkpt>
      <trkpt lat="51.780920" lon="8.487177">
        <ele>81.103968</ele>
        <time>2026-08-18T21:03:07.564Z</time>
      </trkpt>
      <trkpt lat="51.780882" lon="8.487088">
        <ele>81.100052</ele>
        <time>2026-08-18T21:03:08.958Z</time>
      </trkpt>
      <trkpt lat="51.780886" lon="8.486986">
        <ele>81.096351</ele>
        <time>2026-08-18T21:03:10.267Z</time>
      </trkpt>
      <trkpt lat="51.780785" lon="8.486344">
        <ele>81.070853</ele>
        <time>2026-08-18T21:03:18.766Z</time>
      </trkpt>
      <trkpt lat="51.780565" lon="8.484949">
        <ele>80.874413</ele>
        <time>2026-08-18T21:03:37.322Z</time>
      </trkpt>
      <trkpt lat="51.780549" lon="8.484200">
        <ele>80.772148</ele>
        <time>2026-08-18T21:03:46.832Z</time>
      </trkpt>
      <trkpt lat="51.780618" lon="8.484195">
        <ele>80.756914</ele>
        <time>2026-08-18T21:03:48.419Z</time>
      </trkpt>
      <trkpt lat="51.780653" lon="8.484192">
        <ele>80.749183</ele>
        <time>2026-08-18T21:03:49.200Z</time>
      </trkpt>
      <trkpt lat="51.780671" lon="8.484170">
        <ele>80.744206</ele>
        <time>2026-08-18T21:03:49.714Z</time>
      </trkpt>
      <trkpt lat="51.780670" lon="8.483298">
        <ele>80.619818</ele>
        <time>2026-08-18T21:04:02.070Z</time>
      </trkpt>
      <trkpt lat="51.780670" lon="8.482570">
        <ele>80.509958</ele>
        <time>2026-08-18T21:04:12.376Z</time>
      </trkpt>
      <trkpt lat="51.780628" lon="8.482316">
        <ele>80.470283</ele>
        <time>2026-08-18T21:04:16.083Z</time>
      </trkpt>
      <trkpt lat="51.780829" lon="8.481097">
        <ele>80.279906</ele>
        <time>2026-08-18T21:04:33.976Z</time>
      </trkpt>
      <trkpt lat="51.780885" lon="8.481127">
        <ele>80.265516</ele>
        <time>2026-08-18T21:04:35.260Z</time>
      </trkpt>
      <trkpt lat="51.781065" lon="8.481221">
        <ele>80.234785</ele>
        <time>2026-08-18T21:04:39.402Z</time>
      </trkpt>
      <trkpt lat="51.781097" lon="8.481182">
        <ele>80.233331</ele>
        <time>2026-08-18T21:04:40.293Z</time>
      </trkpt>
      <trkpt lat="51.781357" lon="8.481290">
        <ele>80.223588</ele>
        <time>2026-08-18T21:04:46.206Z</time>
      </trkpt>
      <trkpt lat="51.781469" lon="8.481175">
        <ele>80.218773</ele>
        <time>2026-08-18T21:04:49.117Z</time>
      </trkpt>
      <trkpt lat="51.781672" lon="8.480961">
        <ele>80.209977</ele>
        <time>2026-08-18T21:04:54.240Z</time>
      </trkpt>
      <trkpt lat="51.782007" lon="8.480607">
        <ele>80.195451</ele>
        <time>2026-08-18T21:05:02.683Z</time>
      </trkpt>
      <trkpt lat="51.782041" lon="8.480529">
        <ele>80.193309</ele>
        <time>2026-08-18T21:05:03.944Z</time>
      </trkpt>
      <trkpt lat="51.782188" lon="8.480483">
        <ele>80.187875</ele>
        <time>2026-08-18T21:05:07.461Z</time>
      </trkpt>
      <trkpt lat="51.782269" lon="8.480601">
        <ele>80.183918</ele>
        <time>2026-08-18T21:05:10.015Z</time>
      </trkpt>
      <trkpt lat="51.783623" lon="8.479581">
        <ele>80.174166</ele>
        <time>2026-08-18T21:05:44.679Z</time>
      </trkpt>
      <trkpt lat="51.783655" lon="8.479526">
        <ele>80.174245</ele>
        <time>2026-08-18T21:05:45.763Z</time>
      </trkpt>
      <trkpt lat="51.783659" lon="8.479448">
        <ele>80.174326</ele>
        <time>2026-08-18T21:05:46.892Z</time>
      </trkpt>
      <trkpt lat="51.783433" lon="8.478323">
        <ele>80.188981</ele>
        <time>2026-08-18T21:06:04.193Z</time>
      </trkpt>
      <trkpt lat="51.783436" lon="8.478260">
        <ele>80.191681</ele>
        <time>2026-08-18T21:06:05.119Z</time>
      </trkpt>
      <trkpt lat="51.783459" lon="8.478215">
        <ele>80.194176</ele>
        <time>2026-08-18T21:06:05.972Z</time>
      </trkpt>
      <trkpt lat="51.784138" lon="8.477722">
        <ele>80.245593</ele>
        <time>2026-08-18T21:06:23.524Z</time>
      </trkpt>
      <trkpt lat="51.784188" lon="8.477691">
        <ele>80.249292</ele>
        <time>2026-08-18T21:06:25.362Z</time>
      </trkpt>
      <trkpt lat="51.783836" lon="8.475883">
        <ele>80.299596</ele>
        <time>2026-08-18T21:06:50.014Z</time>
      </trkpt>
      <trkpt lat="51.783599" lon="8.474677">
        <ele>80.299828</ele>
        <time>2026-08-18T21:07:06.488Z</time>
      </trkpt>
      <trkpt lat="51.783597" lon="8.474511">
        <ele>80.299859</ele>
        <time>2026-08-18T21:07:08.676Z</time>
      </trkpt>
      <trkpt lat="51.783551" lon="8.474229">
        <ele>80.299912</ele>
        <time>2026-08-18T21:07:12.507Z</time>
      </trkpt>
      <trkpt lat="51.783531" lon="8.474128">
        <ele>80.299932</ele>
        <time>2026-08-18T21:07:13.908Z</time>
      </trkpt>
      <trkpt lat="51.783298" lon="8.472967">
        <ele>80.295236</ele>
        <time>2026-08-18T21:07:29.847Z</time>
      </trkpt>
      <trkpt lat="51.783071" lon="8.471835">
        <ele>80.288676</ele>
        <time>2026-08-18T21:07:45.236Z</time>
      </trkpt>
      <trkpt lat="51.783004" lon="8.471642">
        <ele>80.287456</ele>
        <time>2026-08-18T21:07:48.085Z</time>
      </trkpt>
      <trkpt lat="51.785855" lon="8.470887">
        <ele>80.294465</ele>
        <time>2026-08-18T21:09:07.581Z</time>
      </trkpt>
      <trkpt lat="51.786381" lon="8.470705">
        <ele>80.345054</ele>
        <time>2026-08-18T21:09:22.509Z</time>
      </trkpt>
      <trkpt lat="51.786642" lon="8.470614">
        <ele>80.370164</ele>
        <time>2026-08-18T21:09:29.910Z</time>
      </trkpt>
      <trkpt lat="51.786794" lon="8.470686">
        <ele>80.385060</ele>
        <time>2026-08-18T21:09:34.303Z</time>
      </trkpt>
      <trkpt lat="51.786869" lon="8.470722">
        <ele>80.392417</ele>
        <time>2026-08-18T21:09:36.465Z</time>
      </trkpt>
      <trkpt lat="51.788778" lon="8.470094">
        <ele>80.100918</ele>
        <time>2026-08-18T21:10:43.930Z</time>
      </trkpt>
      <trkpt lat="51.788581" lon="8.468068">
        <ele>79.931685</ele>
        <time>2026-08-18T21:11:10.051Z</time>
      </trkpt>
      <trkpt lat="51.788424" lon="8.466343">
        <ele>80.027985</ele>
        <time>2026-08-18T21:11:33.042Z</time>
      </trkpt>
      <trkpt lat="51.788388" lon="8.465939">
        <ele>80.089071</ele>
        <time>2026-08-18T21:11:38.564Z</time>
      </trkpt>
      <trkpt lat="51.788233" lon="8.464229">
        <ele>80.256658</ele>
        <time>2026-08-18T21:12:01.761Z</time>
      </trkpt>
      <trkpt lat="51.788170" lon="8.463569">
        <ele>80.125481</ele>
        <time>2026-08-18T21:12:10.493Z</time>
      </trkpt>
      <trkpt lat="51.788143" lon="8.463282">
        <ele>80.068458</ele>
        <time>2026-08-18T21:12:14.209Z</time>
      </trkpt>
      <trkpt lat="51.787187" lon="8.459242">
        <ele>78.762897</ele>
        <time>2026-08-18T21:13:07.586Z</time>
      </trkpt>
      <trkpt lat="51.787112" lon="8.458693">
        <ele>78.651818</ele>
        <time>2026-08-18T21:13:14.657Z</time>
      </trkpt>
      <trkpt lat="51.787123" lon="8.458238">
        <ele>78.633375</ele>
        <time>2026-08-18T21:13:20.424Z</time>
      </trkpt>
      <trkpt lat="51.787354" lon="8.456697">
        <ele>78.569155</ele>
        <time>2026-08-18T21:13:40.970Z</time>
      </trkpt>
      <trkpt lat="51.787499" lon="8.455725">
        <ele>78.515595</ele>
        <time>2026-08-18T21:13:54.387Z</time>
      </trkpt>
      <trkpt lat="51.787622" lon="8.454899">
        <ele>78.455174</ele>
        <time>2026-08-18T21:14:05.771Z</time>
      </trkpt>
      <trkpt lat="51.790459" lon="8.440150">
        <ele>77.502170</ele>
        <time>2026-08-18T21:17:24.443Z</time>
      </trkpt>
      <trkpt lat="51.790637" lon="8.439235">
        <ele>77.518750</ele>
        <time>2026-08-18T21:17:37.368Z</time>
      </trkpt>
      <trkpt lat="51.790681" lon="8.439005">
        <ele>77.539133</ele>
        <time>2026-08-18T21:17:40.616Z</time>
      </trkpt>
      <trkpt lat="51.790037" lon="8.437026">
        <ele>77.728460</ele>
        <time>2026-08-18T21:18:10.054Z</time>
      </trkpt>
      <trkpt lat="51.789999" lon="8.436524">
        <ele>77.732925</ele>
        <time>2026-08-18T21:18:16.568Z</time>
      </trkpt>
      <trkpt lat="51.790039" lon="8.436017">
        <ele>77.712789</ele>
        <time>2026-08-18T21:18:23.181Z</time>
      </trkpt>
      <trkpt lat="51.789941" lon="8.435134">
        <ele>77.677447</ele>
        <time>2026-08-18T21:18:34.815Z</time>
      </trkpt>
      <trkpt lat="51.789574" lon="8.434034">
        <ele>77.629805</ele>
        <time>2026-08-18T21:18:51.000Z</time>
      </trkpt>
      <trkpt lat="51.789518" lon="8.433719">
        <ele>77.625708</ele>
        <time>2026-08-18T21:18:55.225Z</time>
      </trkpt>
      <trkpt lat="51.789519" lon="8.433630">
        <ele>77.624596</ele>
        <time>2026-08-18T21:18:56.373Z</time>
      </trkpt>
      <trkpt lat="51.789555" lon="8.433276">
        <ele>77.620111</ele>
        <time>2026-08-18T21:19:00.976Z</time>
      </trkpt>
      <trkpt lat="51.789933" lon="8.431528">
        <ele>77.596964</ele>
        <time>2026-08-18T21:19:25.098Z</time>
      </trkpt>
      <trkpt lat="51.790018" lon="8.431325">
        <ele>77.592316</ele>
        <time>2026-08-18T21:19:28.312Z</time>
      </trkpt>
      <trkpt lat="51.790166" lon="8.431237">
        <ele>77.572228</ele>
        <time>2026-08-18T21:19:31.668Z</time>
      </trkpt>
      <trkpt lat="51.790328" lon="8.431086">
        <ele>77.548407</ele>
        <time>2026-08-18T21:19:35.597Z</time>
      </trkpt>
      <trkpt lat="51.790388" lon="8.430854">
        <ele>77.528593</ele>
        <time>2026-08-18T21:19:38.856Z</time>
      </trkpt>
      <trkpt lat="51.790381" lon="8.430640">
        <ele>77.511707</ele>
        <time>2026-08-18T21:19:41.635Z</time>
      </trkpt>
      <trkpt lat="51.790679" lon="8.430544">
        <ele>77.473000</ele>
        <time>2026-08-18T21:19:47.963Z</time>
      </trkpt>
      <trkpt lat="51.790858" lon="8.430400">
        <ele>77.447531</ele>
        <time>2026-08-18T21:19:52.112Z</time>
      </trkpt>
      <trkpt lat="51.791407" lon="8.429802">
        <ele>77.368096</ele>
        <time>2026-08-18T21:20:05.804Z</time>
      </trkpt>
      <trkpt lat="51.791678" lon="8.429538">
        <ele>77.433203</ele>
        <time>2026-08-18T21:20:12.379Z</time>
      </trkpt>
      <trkpt lat="51.792045" lon="8.429314">
        <ele>77.513926</ele>
        <time>2026-08-18T21:20:20.611Z</time>
      </trkpt>
      <trkpt lat="51.792388" lon="8.429164">
        <ele>77.587044</ele>
        <time>2026-08-18T21:20:28.216Z</time>
      </trkpt>
      <trkpt lat="51.792455" lon="8.429135">
        <ele>77.601317</ele>
        <time>2026-08-18T21:20:29.731Z</time>
      </trkpt>
      <trkpt lat="51.793786" lon="8.428792">
        <ele>78.022105</ele>
        <time>2026-08-18T21:20:59.353Z</time>
      </trkpt>
      <trkpt lat="51.793966" lon="8.428745">
        <ele>78.097137</ele>
        <time>2026-08-18T21:21:03.340Z</time>
      </trkpt>
      <trkpt lat="51.793960" lon="8.428554">
        <ele>78.145812</ele>
        <time>2026-08-18T21:21:06.031Z</time>
      </trkpt>
      <trkpt lat="51.795982" lon="8.428086">
        <ele>79.090701</ele>
        <time>2026-08-18T21:21:50.245Z</time>
      </trkpt>
      <trkpt lat="51.796092" lon="8.428097">
        <ele>79.145313</ele>
        <time>2026-08-18T21:21:52.655Z</time>
      </trkpt>
      <trkpt lat="51.797462" lon="8.427766">
        <ele>79.721457</ele>
        <time>2026-08-18T21:22:23.590Z</time>
      </trkpt>
      <trkpt lat="51.797789" lon="8.427687">
        <ele>79.846450</ele>
        <time>2026-08-18T21:22:30.813Z</time>
      </trkpt>
      <trkpt lat="51.797880" lon="8.427663">
        <ele>79.881307</ele>
        <time>2026-08-18T21:22:32.814Z</time>
      </trkpt>
      <trkpt lat="51.798296" lon="8.427554">
        <ele>80.040625</ele>
        <time>2026-08-18T21:22:41.676Z</time>
      </trkpt>
      <trkpt lat="51.799693" lon="8.427188">
        <ele>78.759344</ele>
        <time>2026-08-18T21:23:09.156Z</time>
      </trkpt>
      <trkpt lat="51.799704" lon="8.427285">
        <ele>78.703245</ele>
        <time>2026-08-18T21:23:10.440Z</time>
      </trkpt>
      <trkpt lat="51.799760" lon="8.427975">
        <ele>78.293374</ele>
        <time>2026-08-18T21:23:19.583Z</time>
      </trkpt>
      <trkpt lat="51.799877" lon="8.429281">
        <ele>77.418704</ele>
        <time>2026-08-18T21:23:37.036Z</time>
      </trkpt>
      <trkpt lat="51.799918" lon="8.429485">
        <ele>77.276528</ele>
        <time>2026-08-18T21:23:39.871Z</time>
      </trkpt>
      <trkpt lat="51.800095" lon="8.429982">
        <ele>76.896391</ele>
        <time>2026-08-18T21:23:47.511Z</time>
      </trkpt>
      <trkpt lat="51.800219" lon="8.431606">
        <ele>76.302621</ele>
        <time>2026-08-18T21:24:09.773Z</time>
      </trkpt>
      <trkpt lat="51.800281" lon="8.431775">
        <ele>76.270348</ele>
        <time>2026-08-18T21:24:12.504Z</time>
      </trkpt>
      <trkpt lat="51.800333" lon="8.431816">
        <ele>76.254983</ele>
        <time>2026-08-18T21:24:13.790Z</time>
      </trkpt>
      <trkpt lat="51.801637" lon="8.432158">
        <ele>76.041779</ele>
        <time>2026-08-18T21:24:45.001Z</time>
      </trkpt>
      <trkpt lat="51.801717" lon="8.432118">
        <ele>76.056655</ele>
        <time>2026-08-18T21:24:46.988Z</time>
      </trkpt>
      <trkpt lat="51.802081" lon="8.431934">
        <ele>76.124409</ele>
        <time>2026-08-18T21:24:56.071Z</time>
      </trkpt>
      <trkpt lat="51.803312" lon="8.431356">
        <ele>76.386268</ele>
        <time>2026-08-18T21:25:26.209Z</time>
      </trkpt>
      <trkpt lat="51.804606" lon="8.431317">
        <ele>76.786853</ele>
        <time>2026-08-18T21:25:57.099Z</time>
      </trkpt>
      <trkpt lat="51.804654" lon="8.431260">
        <ele>76.805285</ele>
        <time>2026-08-18T21:25:58.518Z</time>
      </trkpt>
      <trkpt lat="51.804751" lon="8.431302">
        <ele>76.836366</ele>
        <time>2026-08-18T21:26:00.912Z</time>
      </trkpt>
      <trkpt lat="51.804839" lon="8.431641">
        <ele>76.924804</ele>
        <time>2026-08-18T21:26:06.353Z</time>
      </trkpt>
      <trkpt lat="51.804953" lon="8.431768">
        <ele>76.985302</ele>
        <time>2026-08-18T21:26:09.667Z</time>
      </trkpt>
      <trkpt lat="51.805085" lon="8.431901">
        <ele>77.053270</ele>
        <time>2026-08-18T21:26:15.038Z</time>
      </trkpt>
      <trkpt lat="51.805235" lon="8.431998">
        <ele>77.123870</ele>
        <time>2026-08-18T21:26:18.907Z</time>
      </trkpt>
      <trkpt lat="51.805248" lon="8.432103">
        <ele>77.152808</ele>
        <time>2026-08-18T21:26:20.498Z</time>
      </trkpt>
      <trkpt lat="51.805189" lon="8.432522">
        <ele>77.268933</ele>
        <time>2026-08-18T21:26:26.858Z</time>
      </trkpt>
      <trkpt lat="51.805229" lon="8.432699">
        <ele>77.319858</ele>
        <time>2026-08-18T21:26:29.623Z</time>
      </trkpt>
      <trkpt lat="51.805769" lon="8.433383">
        <ele>77.619622</ele>
        <time>2026-08-18T21:26:46.058Z</time>
      </trkpt>
      <trkpt lat="51.805774" lon="8.433474">
        <ele>77.644309</ele>
        <time>2026-08-18T21:26:47.428Z</time>
      </trkpt>
      <trkpt lat="51.805814" lon="8.433501">
        <ele>77.665302</ele>
        <time>2026-08-18T21:26:48.384Z</time>
      </trkpt>
      <trkpt lat="51.806011" lon="8.433632">
        <ele>77.771704</ele>
        <time>2026-08-18T21:26:53.072Z</time>
      </trkpt>
      <trkpt lat="51.806064" lon="8.433632">
        <ele>77.798179</ele>
        <time>2026-08-18T21:26:54.256Z</time>
      </trkpt>
      <trkpt lat="51.806726" lon="8.432992">
        <ele>78.183449</ele>
        <time>2026-08-18T21:27:11.067Z</time>
      </trkpt>
      <trkpt lat="51.806818" lon="8.432894">
        <ele>78.238479</ele>
        <time>2026-08-18T21:27:14.126Z</time>
      </trkpt>
      <trkpt lat="51.806971" lon="8.432732">
        <ele>78.329830</ele>
        <time>2026-08-18T21:27:19.209Z</time>
      </trkpt>
      <trkpt lat="51.807003" lon="8.432698">
        <ele>78.348956</ele>
        <time>2026-08-18T21:27:20.300Z</time>
      </trkpt>
      <trkpt lat="51.807071" lon="8.432882">
        <ele>78.415166</ele>
        <time>2026-08-18T21:27:23.205Z</time>
      </trkpt>
      <trkpt lat="51.807126" lon="8.432828">
        <ele>78.447306</ele>
        <time>2026-08-18T21:27:24.604Z</time>
      </trkpt>
      <trkpt lat="51.806717" lon="8.431776">
        <ele>78.975524</ele>
        <time>2026-08-18T21:27:46.066Z</time>
      </trkpt>
      <trkpt lat="51.806602" lon="8.431476">
        <ele>79.140031</ele>
        <time>2026-08-18T21:27:52.150Z</time>
      </trkpt>
      <trkpt lat="51.806554" lon="8.431379">
        <ele>79.197933</ele>
        <time>2026-08-18T21:27:54.303Z</time>
      </trkpt>
      <trkpt lat="51.806517" lon="8.431426">
        <ele>79.233396</ele>
        <time>2026-08-18T21:27:55.357Z</time>
      </trkpt>
      <trkpt lat="51.806554" lon="8.431379">
        <ele>79.268859</ele>
        <time>2026-08-18T21:27:56.401Z</time>
      </trkpt>
      <trkpt lat="51.806845" lon="8.430903">
        <ele>79.580829</ele>
        <time>2026-08-18T21:28:05.661Z</time>
      </trkpt>
      <trkpt lat="51.806941" lon="8.430729">
        <ele>79.689513</ele>
        <time>2026-08-18T21:28:08.884Z</time>
      </trkpt>
      <trkpt lat="51.807003" lon="8.430614">
        <ele>79.760622</ele>
        <time>2026-08-18T21:28:10.991Z</time>
      </trkpt>
      <trkpt lat="51.807025" lon="8.430573">
        <ele>79.785922</ele>
        <time>2026-08-18T21:28:11.738Z</time>
      </trkpt>
      <trkpt lat="51.807246" lon="8.430174">
        <ele>80.011877</ele>
        <time>2026-08-18T21:28:21.015Z</time>
      </trkpt>
      <trkpt lat="51.807277" lon="8.430088">
        <ele>80.049970</ele>
        <time>2026-08-18T21:28:22.724Z</time>
      </trkpt>
      <trkpt lat="51.807706" lon="8.428906">
        <ele>80.574429</ele>
        <time>2026-08-18T21:28:46.411Z</time>
      </trkpt>
      <trkpt lat="51.807977" lon="8.428363">
        <ele>80.841449</ele>
        <time>2026-08-18T21:28:58.455Z</time>
      </trkpt>
      <trkpt lat="51.808052" lon="8.428212">
        <ele>80.915562</ele>
        <time>2026-08-18T21:29:01.791Z</time>
      </trkpt>
      <trkpt lat="51.808181" lon="8.427915">
        <ele>81.008614</ele>
        <time>2026-08-18T21:29:08.027Z</time>
      </trkpt>
      <trkpt lat="51.808234" lon="8.427795">
        <ele>80.997313</ele>
        <time>2026-08-18T21:29:10.558Z</time>
      </trkpt>
      <trkpt lat="51.808216" lon="8.427396">
        <ele>80.966655</ele>
        <time>2026-08-18T21:29:17.420Z</time>
      </trkpt>
      <trkpt lat="51.809215" lon="8.427521">
        <ele>80.842467</ele>
        <time>2026-08-18T21:29:38.252Z</time>
      </trkpt>
      <trkpt lat="51.809414" lon="8.427548">
        <ele>80.817716</ele>
        <time>2026-08-18T21:29:42.252Z</time>
      </trkpt>
      <trkpt lat="51.809934" lon="8.427627">
        <ele>80.577773</ele>
        <time>2026-08-18T21:29:52.603Z</time>
      </trkpt>
      <trkpt lat="51.810187" lon="8.427764">
        <ele>80.401120</ele>
        <time>2026-08-18T21:29:57.913Z</time>
      </trkpt>
      <trkpt lat="51.810386" lon="8.427908">
        <ele>80.256776</ele>
        <time>2026-08-18T21:30:02.259Z</time>
      </trkpt>
      <trkpt lat="51.810513" lon="8.428011">
        <ele>80.162709</ele>
        <time>2026-08-18T21:30:05.101Z</time>
      </trkpt>
      <trkpt lat="51.810531" lon="8.428025">
        <ele>80.149485</ele>
        <time>2026-08-18T21:30:05.493Z</time>
      </trkpt>
      <trkpt lat="51.810654" lon="8.428124">
        <ele>80.058519</ele>
        <time>2026-08-18T21:30:08.232Z</time>
      </trkpt>
      <trkpt lat="51.810748" lon="8.428177">
        <ele>79.992608</ele>
        <time>2026-08-18T21:30:10.232Z</time>
      </trkpt>
      <trkpt lat="51.810739" lon="8.428302">
        <ele>79.941092</ele>
        <time>2026-08-18T21:30:12.322Z</time>
      </trkpt>
      <trkpt lat="51.811150" lon="8.428684">
        <ele>79.627237</ele>
        <time>2026-08-18T21:30:24.957Z</time>
      </trkpt>
      <trkpt lat="51.811243" lon="8.428631">
        <ele>79.586778</ele>
        <time>2026-08-18T21:30:27.583Z</time>
      </trkpt>
      <trkpt lat="51.811371" lon="8.428802">
        <ele>79.544265</ele>
        <time>2026-08-18T21:30:31.025Z</time>
      </trkpt>
      <trkpt lat="51.811683" lon="8.429042">
        <ele>79.455792</ele>
        <time>2026-08-18T21:30:38.322Z</time>
      </trkpt>
      <trkpt lat="51.812045" lon="8.429054">
        <ele>79.363071</ele>
        <time>2026-08-18T21:30:46.077Z</time>
      </trkpt>
      <trkpt lat="51.812301" lon="8.429010">
        <ele>79.297145</ele>
        <time>2026-08-18T21:30:51.645Z</time>
      </trkpt>
      <trkpt lat="51.812376" lon="8.428996">
        <ele>79.277812</ele>
        <time>2026-08-18T21:30:53.205Z</time>
      </trkpt>
      <trkpt lat="51.812384" lon="8.429096">
        <ele>79.261848</ele>
        <time>2026-08-18T21:30:54.926Z</time>
      </trkpt>
      <trkpt lat="51.812959" lon="8.428989">
        <ele>79.146079</ele>
        <time>2026-08-18T21:31:10.879Z</time>
      </trkpt>
      <trkpt lat="51.813027" lon="8.428979">
        <ele>79.148707</ele>
        <time>2026-08-18T21:31:12.778Z</time>
      </trkpt>
      <trkpt lat="51.813079" lon="8.428981">
        <ele>79.150710</ele>
        <time>2026-08-18T21:31:14.231Z</time>
      </trkpt>
      <trkpt lat="51.813311" lon="8.429018">
        <ele>79.159685</ele>
        <time>2026-08-18T21:31:20.696Z</time>
      </trkpt>
      <trkpt lat="51.813779" lon="8.429177">
        <ele>79.178096</ele>
        <time>2026-08-18T21:31:34.000Z</time>
      </trkpt>
      <trkpt lat="51.814743" lon="8.429472">
        <ele>79.189190</ele>
        <time>2026-08-18T21:32:00.877Z</time>
      </trkpt>
      <trkpt lat="51.815640" lon="8.429673">
        <ele>79.029602</ele>
        <time>2026-08-18T21:32:25.677Z</time>
      </trkpt>
      <trkpt lat="51.816499" lon="8.429788">
        <ele>78.894111</ele>
        <time>2026-08-18T21:32:49.087Z</time>
      </trkpt>
      <trkpt lat="51.817276" lon="8.429890">
        <ele>78.894111</ele>
        <time>2026-08-18T21:33:10.591Z</time>
      </trkpt>
      <trkpt lat="51.817634" lon="8.429941">
        <ele>78.894111</ele>
        <time>2026-08-18T21:33:20.412Z</time>
      </trkpt>
      <trkpt lat="51.817627" lon="8.430092">
        <ele>78.894111</ele>
        <time>2026-08-18T21:33:23.651Z</time>
      </trkpt>
      <trkpt lat="51.817610" lon="8.430259">
        <ele>78.894111</ele>
        <time>2026-08-18T21:33:26.534Z</time>
      </trkpt>
      <trkpt lat="51.817635" lon="8.430427">
        <ele>78.894111</ele>
        <time>2026-08-18T21:33:29.466Z</time>
      </trkpt>
      <trkpt lat="51.817677" lon="8.430708">
        <ele>78.894111</ele>
        <time>2026-08-18T21:33:34.387Z</time>
      </trkpt>
      <trkpt lat="51.817772" lon="8.430695">
        <ele>78.894111</ele>
        <time>2026-08-18T21:33:37.021Z</time>
      </trkpt>
      <trkpt lat="51.817918" lon="8.430743">
        <ele>78.894111</ele>
        <time>2026-08-18T21:33:41.163Z</time>
      </trkpt>
    </trkseg>
  </trk>
</gpx>